<?xml version="1.0" encoding="UTF-8" standalone="no" ?>
<gpx xmlns="http://www.topografix.com/GPX/1/1" xmlns:xsi="http://www.w3.org/2001/XMLSchema-instance" xsi:schemaLocation="http://www.topografix.com/GPX/1/1 http://www.topografix.com/GPX/1/1/gpx.xsd" version="1.1" creator="VisuGPX - https://www.visugpx.com">
  <metadata>
    <name>CARREFOUR DE LUYNES 3-----</name>
  </metadata>
  <trk>
    <name><![CDATA[CARREFOUR DE LUYNES 3-----]]></name>
    <trkseg>
      <trkpt lat="48.59136" lon="1.96656">
        <ele>27.05</ele>
        <time>2016-02-15T12:58:03Z</time>
      </trkpt>
      <trkpt lat="48.59136" lon="1.96656">
        <ele>27.05</ele>
        <time>2016-02-15T12:58:04Z</time>
      </trkpt>
      <trkpt lat="48.59129" lon="1.96634">
        <ele>27.05</ele>
        <time>2016-02-15T12:58:19Z</time>
      </trkpt>
      <trkpt lat="48.59116" lon="1.96636">
        <ele>25.61</ele>
        <time>2016-02-15T12:58:36Z</time>
      </trkpt>
      <trkpt lat="48.59112" lon="1.96643">
        <ele>25.13</ele>
        <time>2016-02-15T12:58:52Z</time>
      </trkpt>
      <trkpt lat="48.59112" lon="1.9665">
        <ele>25.61</ele>
        <time>2016-02-15T12:58:55Z</time>
      </trkpt>
      <trkpt lat="48.59112" lon="1.96678">
        <ele>25.13</ele>
        <time>2016-02-15T12:59:11Z</time>
      </trkpt>
      <trkpt lat="48.59114" lon="1.96702">
        <ele>24.65</ele>
        <time>2016-02-15T12:59:25Z</time>
      </trkpt>
      <trkpt lat="48.59114" lon="1.9671">
        <ele>25.13</ele>
        <time>2016-02-15T12:59:29Z</time>
      </trkpt>
      <trkpt lat="48.59115" lon="1.96725">
        <ele>25.13</ele>
        <time>2016-02-15T12:59:36Z</time>
      </trkpt>
      <trkpt lat="48.59112" lon="1.96748">
        <ele>24.65</ele>
        <time>2016-02-15T12:59:52Z</time>
      </trkpt>
      <trkpt lat="48.59113" lon="1.96749">
        <ele>24.65</ele>
        <time>2016-02-15T12:59:53Z</time>
      </trkpt>
      <trkpt lat="48.59113" lon="1.96758">
        <ele>23.21</ele>
        <time>2016-02-15T13:00:00Z</time>
      </trkpt>
      <trkpt lat="48.59108" lon="1.96773">
        <ele>24.17</ele>
        <time>2016-02-15T13:00:16Z</time>
      </trkpt>
      <trkpt lat="48.591" lon="1.96796">
        <ele>23.69</ele>
        <time>2016-02-15T13:00:30Z</time>
      </trkpt>
      <trkpt lat="48.59097" lon="1.96809">
        <ele>23.21</ele>
        <time>2016-02-15T13:00:35Z</time>
      </trkpt>
      <trkpt lat="48.59094" lon="1.96821">
        <ele>23.21</ele>
        <time>2016-02-15T13:00:40Z</time>
      </trkpt>
      <trkpt lat="48.59091" lon="1.96828">
        <ele>22.73</ele>
        <time>2016-02-15T13:00:43Z</time>
      </trkpt>
      <trkpt lat="48.59085" lon="1.96846">
        <ele>23.21</ele>
        <time>2016-02-15T13:00:51Z</time>
      </trkpt>
      <trkpt lat="48.59082" lon="1.96857">
        <ele>22.25</ele>
        <time>2016-02-15T13:00:55Z</time>
      </trkpt>
      <trkpt lat="48.59076" lon="1.96883">
        <ele>22.25</ele>
        <time>2016-02-15T13:01:08Z</time>
      </trkpt>
      <trkpt lat="48.59075" lon="1.96891">
        <ele>22.25</ele>
        <time>2016-02-15T13:01:11Z</time>
      </trkpt>
      <trkpt lat="48.59066" lon="1.96918">
        <ele>22.25</ele>
        <time>2016-02-15T13:01:25Z</time>
      </trkpt>
      <trkpt lat="48.59064" lon="1.96938">
        <ele>22.25</ele>
        <time>2016-02-15T13:01:38Z</time>
      </trkpt>
      <trkpt lat="48.59059" lon="1.9695">
        <ele>22.25</ele>
        <time>2016-02-15T13:01:42Z</time>
      </trkpt>
      <trkpt lat="48.59051" lon="1.96979">
        <ele>22.25</ele>
        <time>2016-02-15T13:01:56Z</time>
      </trkpt>
      <trkpt lat="48.59051" lon="1.96994">
        <ele>22.73</ele>
        <time>2016-02-15T13:02:06Z</time>
      </trkpt>
      <trkpt lat="48.5905" lon="1.97002">
        <ele>22.25</ele>
        <time>2016-02-15T13:02:09Z</time>
      </trkpt>
      <trkpt lat="48.59048" lon="1.97019">
        <ele>22.25</ele>
        <time>2016-02-15T13:02:17Z</time>
      </trkpt>
      <trkpt lat="48.59045" lon="1.97027">
        <ele>22.73</ele>
        <time>2016-02-15T13:02:20Z</time>
      </trkpt>
      <trkpt lat="48.59039" lon="1.97047">
        <ele>21.77</ele>
        <time>2016-02-15T13:02:30Z</time>
      </trkpt>
      <trkpt lat="48.59031" lon="1.97067">
        <ele>21.77</ele>
        <time>2016-02-15T13:02:39Z</time>
      </trkpt>
      <trkpt lat="48.5903" lon="1.97073">
        <ele>21.77</ele>
        <time>2016-02-15T13:02:42Z</time>
      </trkpt>
      <trkpt lat="48.59025" lon="1.97108">
        <ele>20.81</ele>
        <time>2016-02-15T13:02:57Z</time>
      </trkpt>
      <trkpt lat="48.59026" lon="1.97111">
        <ele>20.81</ele>
        <time>2016-02-15T13:02:59Z</time>
      </trkpt>
      <trkpt lat="48.59025" lon="1.97127">
        <ele>21.29</ele>
        <time>2016-02-15T13:03:07Z</time>
      </trkpt>
      <trkpt lat="48.59026" lon="1.97139">
        <ele>20.81</ele>
        <time>2016-02-15T13:03:11Z</time>
      </trkpt>
      <trkpt lat="48.59025" lon="1.97157">
        <ele>21.29</ele>
        <time>2016-02-15T13:03:19Z</time>
      </trkpt>
      <trkpt lat="48.59025" lon="1.97174">
        <ele>20.81</ele>
        <time>2016-02-15T13:03:28Z</time>
      </trkpt>
      <trkpt lat="48.59024" lon="1.9718">
        <ele>20.81</ele>
        <time>2016-02-15T13:03:31Z</time>
      </trkpt>
      <trkpt lat="48.59021" lon="1.97193">
        <ele>20.81</ele>
        <time>2016-02-15T13:03:36Z</time>
      </trkpt>
      <trkpt lat="48.59018" lon="1.97207">
        <ele>20.81</ele>
        <time>2016-02-15T13:03:41Z</time>
      </trkpt>
      <trkpt lat="48.59016" lon="1.97221">
        <ele>20.81</ele>
        <time>2016-02-15T13:03:48Z</time>
      </trkpt>
      <trkpt lat="48.59016" lon="1.97225">
        <ele>20.81</ele>
        <time>2016-02-15T13:03:50Z</time>
      </trkpt>
      <trkpt lat="48.59015" lon="1.97242">
        <ele>20.81</ele>
        <time>2016-02-15T13:03:58Z</time>
      </trkpt>
      <trkpt lat="48.5901" lon="1.97265">
        <ele>21.29</ele>
        <time>2016-02-15T13:04:08Z</time>
      </trkpt>
      <trkpt lat="48.5902" lon="1.97282">
        <ele>20.81</ele>
        <time>2016-02-15T13:04:20Z</time>
      </trkpt>
      <trkpt lat="48.59025" lon="1.97286">
        <ele>20.81</ele>
        <time>2016-02-15T13:04:24Z</time>
      </trkpt>
      <trkpt lat="48.59034" lon="1.97295">
        <ele>21.77</ele>
        <time>2016-02-15T13:04:34Z</time>
      </trkpt>
      <trkpt lat="48.59052" lon="1.97318">
        <ele>22.73</ele>
        <time>2016-02-15T13:04:53Z</time>
      </trkpt>
      <trkpt lat="48.59069" lon="1.97336">
        <ele>22.25</ele>
        <time>2016-02-15T13:05:09Z</time>
      </trkpt>
      <trkpt lat="48.59084" lon="1.97331">
        <ele>24.17</ele>
        <time>2016-02-15T13:05:23Z</time>
      </trkpt>
      <trkpt lat="48.5909" lon="1.97323">
        <ele>24.65</ele>
        <time>2016-02-15T13:05:33Z</time>
      </trkpt>
      <trkpt lat="48.59094" lon="1.97318">
        <ele>24.65</ele>
        <time>2016-02-15T13:05:37Z</time>
      </trkpt>
      <trkpt lat="48.59101" lon="1.97305">
        <ele>24.65</ele>
        <time>2016-02-15T13:05:46Z</time>
      </trkpt>
      <trkpt lat="48.59108" lon="1.97283">
        <ele>25.13</ele>
        <time>2016-02-15T13:06:01Z</time>
      </trkpt>
      <trkpt lat="48.59125" lon="1.97254">
        <ele>25.13</ele>
        <time>2016-02-15T13:06:15Z</time>
      </trkpt>
      <trkpt lat="48.59138" lon="1.97231">
        <ele>26.09</ele>
        <time>2016-02-15T13:06:29Z</time>
      </trkpt>
      <trkpt lat="48.59146" lon="1.97218">
        <ele>27.53</ele>
        <time>2016-02-15T13:06:37Z</time>
      </trkpt>
      <trkpt lat="48.59151" lon="1.97205">
        <ele>26.09</ele>
        <time>2016-02-15T13:06:44Z</time>
      </trkpt>
      <trkpt lat="48.59153" lon="1.97199">
        <ele>27.53</ele>
        <time>2016-02-15T13:06:47Z</time>
      </trkpt>
      <trkpt lat="48.59156" lon="1.9719">
        <ele>27.53</ele>
        <time>2016-02-15T13:06:52Z</time>
      </trkpt>
      <trkpt lat="48.59174" lon="1.9716">
        <ele>29.94</ele>
        <time>2016-02-15T13:07:08Z</time>
      </trkpt>
      <trkpt lat="48.59185" lon="1.97138">
        <ele>29.94</ele>
        <time>2016-02-15T13:07:20Z</time>
      </trkpt>
      <trkpt lat="48.59196" lon="1.97118">
        <ele>30.42</ele>
        <time>2016-02-15T13:07:32Z</time>
      </trkpt>
      <trkpt lat="48.59201" lon="1.97097">
        <ele>30.42</ele>
        <time>2016-02-15T13:07:47Z</time>
      </trkpt>
      <trkpt lat="48.59205" lon="1.97086">
        <ele>31.38</ele>
        <time>2016-02-15T13:07:56Z</time>
      </trkpt>
      <trkpt lat="48.59207" lon="1.97082">
        <ele>31.38</ele>
        <time>2016-02-15T13:07:58Z</time>
      </trkpt>
      <trkpt lat="48.59222" lon="1.97054">
        <ele>31.38</ele>
        <time>2016-02-15T13:08:11Z</time>
      </trkpt>
      <trkpt lat="48.59238" lon="1.97027">
        <ele>33.3</ele>
        <time>2016-02-15T13:08:26Z</time>
      </trkpt>
      <trkpt lat="48.59246" lon="1.97001">
        <ele>34.26</ele>
        <time>2016-02-15T13:08:39Z</time>
      </trkpt>
      <trkpt lat="48.59248" lon="1.96996">
        <ele>36.19</ele>
        <time>2016-02-15T13:08:42Z</time>
      </trkpt>
      <trkpt lat="48.59249" lon="1.96995">
        <ele>36.19</ele>
        <time>2016-02-15T13:08:43Z</time>
      </trkpt>
      <trkpt lat="48.59252" lon="1.96991">
        <ele>36.19</ele>
        <time>2016-02-15T13:08:46Z</time>
      </trkpt>
      <trkpt lat="48.59256" lon="1.96985">
        <ele>38.11</ele>
        <time>2016-02-15T13:08:50Z</time>
      </trkpt>
      <trkpt lat="48.59269" lon="1.96961">
        <ele>39.07</ele>
        <time>2016-02-15T13:09:04Z</time>
      </trkpt>
      <trkpt lat="48.59274" lon="1.96954">
        <ele>39.55</ele>
        <time>2016-02-15T13:09:09Z</time>
      </trkpt>
      <trkpt lat="48.59283" lon="1.96936">
        <ele>43.4</ele>
        <time>2016-02-15T13:09:22Z</time>
      </trkpt>
      <trkpt lat="48.59284" lon="1.96934">
        <ele>43.4</ele>
        <time>2016-02-15T13:09:23Z</time>
      </trkpt>
      <trkpt lat="48.59289" lon="1.96923">
        <ele>45.32</ele>
        <time>2016-02-15T13:09:35Z</time>
      </trkpt>
      <trkpt lat="48.59291" lon="1.96919">
        <ele>47.24</ele>
        <time>2016-02-15T13:09:38Z</time>
      </trkpt>
      <trkpt lat="48.59294" lon="1.96914">
        <ele>47.72</ele>
        <time>2016-02-15T13:09:42Z</time>
      </trkpt>
      <trkpt lat="48.59296" lon="1.9691">
        <ele>48.2</ele>
        <time>2016-02-15T13:09:44Z</time>
      </trkpt>
      <trkpt lat="48.5931" lon="1.96885">
        <ele>49.16</ele>
        <time>2016-02-15T13:09:58Z</time>
      </trkpt>
      <trkpt lat="48.59312" lon="1.96881">
        <ele>49.16</ele>
        <time>2016-02-15T13:10:01Z</time>
      </trkpt>
      <trkpt lat="48.59314" lon="1.96871">
        <ele>51.09</ele>
        <time>2016-02-15T13:10:06Z</time>
      </trkpt>
      <trkpt lat="48.59315" lon="1.96869">
        <ele>50.61</ele>
        <time>2016-02-15T13:10:07Z</time>
      </trkpt>
      <trkpt lat="48.59321" lon="1.96851">
        <ele>53.01</ele>
        <time>2016-02-15T13:10:16Z</time>
      </trkpt>
      <trkpt lat="48.59323" lon="1.96846">
        <ele>53.49</ele>
        <time>2016-02-15T13:10:19Z</time>
      </trkpt>
      <trkpt lat="48.59323" lon="1.96844">
        <ele>53.49</ele>
        <time>2016-02-15T13:10:20Z</time>
      </trkpt>
      <trkpt lat="48.59338" lon="1.96814">
        <ele>54.45</ele>
        <time>2016-02-15T13:10:37Z</time>
      </trkpt>
      <trkpt lat="48.59346" lon="1.96792">
        <ele>53.01</ele>
        <time>2016-02-15T13:10:52Z</time>
      </trkpt>
      <trkpt lat="48.59356" lon="1.96774">
        <ele>58.78</ele>
        <time>2016-02-15T13:11:08Z</time>
      </trkpt>
      <trkpt lat="48.59358" lon="1.96772">
        <ele>64.55</ele>
        <time>2016-02-15T13:11:09Z</time>
      </trkpt>
      <trkpt lat="48.59359" lon="1.96769">
        <ele>69.35</ele>
        <time>2016-02-15T13:11:10Z</time>
      </trkpt>
      <trkpt lat="48.5936" lon="1.96767">
        <ele>74.64</ele>
        <time>2016-02-15T13:11:11Z</time>
      </trkpt>
      <trkpt lat="48.59361" lon="1.96766">
        <ele>79.45</ele>
        <time>2016-02-15T13:11:12Z</time>
      </trkpt>
      <trkpt lat="48.59362" lon="1.96764">
        <ele>84.73</ele>
        <time>2016-02-15T13:11:13Z</time>
      </trkpt>
      <trkpt lat="48.59362" lon="1.96763">
        <ele>89.06</ele>
        <time>2016-02-15T13:11:14Z</time>
      </trkpt>
      <trkpt lat="48.59363" lon="1.96761">
        <ele>93.87</ele>
        <time>2016-02-15T13:11:15Z</time>
      </trkpt>
      <trkpt lat="48.59364" lon="1.9676">
        <ele>98.19</ele>
        <time>2016-02-15T13:11:16Z</time>
      </trkpt>
      <trkpt lat="48.59364" lon="1.96759">
        <ele>102.52</ele>
        <time>2016-02-15T13:11:17Z</time>
      </trkpt>
      <trkpt lat="48.59364" lon="1.96757">
        <ele>105.88</ele>
        <time>2016-02-15T13:11:18Z</time>
      </trkpt>
      <trkpt lat="48.59365" lon="1.96756">
        <ele>110.21</ele>
        <time>2016-02-15T13:11:19Z</time>
      </trkpt>
      <trkpt lat="48.59365" lon="1.96754">
        <ele>113.57</ele>
        <time>2016-02-15T13:11:20Z</time>
      </trkpt>
      <trkpt lat="48.59367" lon="1.96751">
        <ele>120.78</ele>
        <time>2016-02-15T13:11:22Z</time>
      </trkpt>
      <trkpt lat="48.59369" lon="1.96749">
        <ele>124.15</ele>
        <time>2016-02-15T13:11:23Z</time>
      </trkpt>
      <trkpt lat="48.5937" lon="1.96747">
        <ele>127.51</ele>
        <time>2016-02-15T13:11:24Z</time>
      </trkpt>
      <trkpt lat="48.59371" lon="1.96746">
        <ele>130.4</ele>
        <time>2016-02-15T13:11:25Z</time>
      </trkpt>
      <trkpt lat="48.59372" lon="1.96744">
        <ele>133.76</ele>
        <time>2016-02-15T13:11:26Z</time>
      </trkpt>
      <trkpt lat="48.59373" lon="1.96743">
        <ele>137.13</ele>
        <time>2016-02-15T13:11:27Z</time>
      </trkpt>
      <trkpt lat="48.59375" lon="1.9674">
        <ele>142.41</ele>
        <time>2016-02-15T13:11:29Z</time>
      </trkpt>
      <trkpt lat="48.59377" lon="1.96736">
        <ele>147.7</ele>
        <time>2016-02-15T13:11:31Z</time>
      </trkpt>
      <trkpt lat="48.59379" lon="1.96731">
        <ele>152.51</ele>
        <time>2016-02-15T13:11:33Z</time>
      </trkpt>
      <trkpt lat="48.59381" lon="1.96727">
        <ele>154.43</ele>
        <time>2016-02-15T13:11:34Z</time>
      </trkpt>
      <trkpt lat="48.59382" lon="1.96722">
        <ele>157.79</ele>
        <time>2016-02-15T13:11:37Z</time>
      </trkpt>
      <trkpt lat="48.59383" lon="1.96719">
        <ele>161.64</ele>
        <time>2016-02-15T13:11:39Z</time>
      </trkpt>
      <trkpt lat="48.59384" lon="1.96716">
        <ele>165.48</ele>
        <time>2016-02-15T13:11:41Z</time>
      </trkpt>
      <trkpt lat="48.59385" lon="1.96712">
        <ele>168.85</ele>
        <time>2016-02-15T13:11:43Z</time>
      </trkpt>
      <trkpt lat="48.59387" lon="1.96708">
        <ele>172.21</ele>
        <time>2016-02-15T13:11:45Z</time>
      </trkpt>
      <trkpt lat="48.59389" lon="1.96704">
        <ele>176.54</ele>
        <time>2016-02-15T13:11:48Z</time>
      </trkpt>
      <trkpt lat="48.59391" lon="1.96699">
        <ele>180.38</ele>
        <time>2016-02-15T13:11:51Z</time>
      </trkpt>
      <trkpt lat="48.59393" lon="1.96694">
        <ele>184.23</ele>
        <time>2016-02-15T13:11:54Z</time>
      </trkpt>
      <trkpt lat="48.59394" lon="1.9669">
        <ele>188.08</ele>
        <time>2016-02-15T13:11:57Z</time>
      </trkpt>
      <trkpt lat="48.59397" lon="1.96685">
        <ele>190.96</ele>
        <time>2016-02-15T13:12:00Z</time>
      </trkpt>
      <trkpt lat="48.59401" lon="1.96681">
        <ele>194.32</ele>
        <time>2016-02-15T13:12:03Z</time>
      </trkpt>
      <trkpt lat="48.59402" lon="1.96678">
        <ele>196.25</ele>
        <time>2016-02-15T13:12:05Z</time>
      </trkpt>
      <trkpt lat="48.59409" lon="1.96657">
        <ele>197.21</ele>
        <time>2016-02-15T13:12:17Z</time>
      </trkpt>
      <trkpt lat="48.59421" lon="1.96628">
        <ele>196.73</ele>
        <time>2016-02-15T13:12:31Z</time>
      </trkpt>
      <trkpt lat="48.59422" lon="1.96622">
        <ele>196.25</ele>
        <time>2016-02-15T13:12:45Z</time>
      </trkpt>
      <trkpt lat="48.59443" lon="1.96601">
        <ele>196.73</ele>
        <time>2016-02-15T13:13:11Z</time>
      </trkpt>
      <trkpt lat="48.59446" lon="1.96589">
        <ele>196.73</ele>
        <time>2016-02-15T13:13:30Z</time>
      </trkpt>
      <trkpt lat="48.59446" lon="1.96586">
        <ele>196.25</ele>
        <time>2016-02-15T13:13:50Z</time>
      </trkpt>
      <trkpt lat="48.59446" lon="1.96585">
        <ele>192.88</ele>
        <time>2016-02-15T13:14:07Z</time>
      </trkpt>
      <trkpt lat="48.59446" lon="1.96585">
        <ele>192.88</ele>
        <time>2016-02-15T13:14:08Z</time>
      </trkpt>
      <trkpt lat="48.59446" lon="1.96585">
        <ele>200.09</ele>
        <time>2016-02-15T13:14:09Z</time>
      </trkpt>
      <trkpt lat="48.59446" lon="1.96585">
        <ele>196.25</ele>
        <time>2016-02-15T13:14:10Z</time>
      </trkpt>
      <trkpt lat="48.59455" lon="1.96569">
        <ele>195.28</ele>
        <time>2016-02-15T13:14:24Z</time>
      </trkpt>
      <trkpt lat="48.59465" lon="1.96552">
        <ele>195.77</ele>
        <time>2016-02-15T13:14:36Z</time>
      </trkpt>
      <trkpt lat="48.59466" lon="1.96548">
        <ele>195.28</ele>
        <time>2016-02-15T13:14:38Z</time>
      </trkpt>
      <trkpt lat="48.59476" lon="1.9652">
        <ele>197.21</ele>
        <time>2016-02-15T13:14:53Z</time>
      </trkpt>
      <trkpt lat="48.59482" lon="1.96501">
        <ele>199.61</ele>
        <time>2016-02-15T13:15:03Z</time>
      </trkpt>
      <trkpt lat="48.59485" lon="1.96495">
        <ele>198.65</ele>
        <time>2016-02-15T13:15:06Z</time>
      </trkpt>
      <trkpt lat="48.59497" lon="1.96472">
        <ele>199.13</ele>
        <time>2016-02-15T13:15:20Z</time>
      </trkpt>
      <trkpt lat="48.59509" lon="1.96449">
        <ele>200.57</ele>
        <time>2016-02-15T13:15:33Z</time>
      </trkpt>
      <trkpt lat="48.59516" lon="1.96433">
        <ele>202.01</ele>
        <time>2016-02-15T13:15:45Z</time>
      </trkpt>
      <trkpt lat="48.59529" lon="1.96416">
        <ele>201.53</ele>
        <time>2016-02-15T13:15:58Z</time>
      </trkpt>
      <trkpt lat="48.5953" lon="1.96412">
        <ele>201.53</ele>
        <time>2016-02-15T13:16:00Z</time>
      </trkpt>
      <trkpt lat="48.59542" lon="1.96387">
        <ele>203.94</ele>
        <time>2016-02-15T13:16:14Z</time>
      </trkpt>
      <trkpt lat="48.59558" lon="1.96361">
        <ele>204.42</ele>
        <time>2016-02-15T13:16:30Z</time>
      </trkpt>
      <trkpt lat="48.59561" lon="1.96356">
        <ele>204.42</ele>
        <time>2016-02-15T13:16:33Z</time>
      </trkpt>
      <trkpt lat="48.59564" lon="1.96349">
        <ele>203.94</ele>
        <time>2016-02-15T13:16:37Z</time>
      </trkpt>
      <trkpt lat="48.5958" lon="1.96319">
        <ele>203.94</ele>
        <time>2016-02-15T13:16:53Z</time>
      </trkpt>
      <trkpt lat="48.59584" lon="1.96312">
        <ele>203.94</ele>
        <time>2016-02-15T13:16:59Z</time>
      </trkpt>
      <trkpt lat="48.59589" lon="1.96298">
        <ele>202.98</ele>
        <time>2016-02-15T13:17:05Z</time>
      </trkpt>
      <trkpt lat="48.59605" lon="1.96271">
        <ele>200.09</ele>
        <time>2016-02-15T13:17:20Z</time>
      </trkpt>
      <trkpt lat="48.59614" lon="1.96256">
        <ele>198.65</ele>
        <time>2016-02-15T13:17:30Z</time>
      </trkpt>
      <trkpt lat="48.59616" lon="1.9625">
        <ele>197.21</ele>
        <time>2016-02-15T13:17:34Z</time>
      </trkpt>
      <trkpt lat="48.59613" lon="1.96231">
        <ele>196.25</ele>
        <time>2016-02-15T13:17:40Z</time>
      </trkpt>
      <trkpt lat="48.59617" lon="1.96213">
        <ele>192.4</ele>
        <time>2016-02-15T13:17:52Z</time>
      </trkpt>
      <trkpt lat="48.59618" lon="1.96211">
        <ele>192.4</ele>
        <time>2016-02-15T13:17:53Z</time>
      </trkpt>
      <trkpt lat="48.59621" lon="1.962">
        <ele>191.44</ele>
        <time>2016-02-15T13:17:58Z</time>
      </trkpt>
      <trkpt lat="48.5963" lon="1.96182">
        <ele>189.04</ele>
        <time>2016-02-15T13:18:10Z</time>
      </trkpt>
      <trkpt lat="48.59635" lon="1.96165">
        <ele>186.63</ele>
        <time>2016-02-15T13:18:20Z</time>
      </trkpt>
      <trkpt lat="48.59647" lon="1.96142">
        <ele>182.79</ele>
        <time>2016-02-15T13:18:33Z</time>
      </trkpt>
      <trkpt lat="48.59661" lon="1.96119">
        <ele>180.87</ele>
        <time>2016-02-15T13:18:46Z</time>
      </trkpt>
      <trkpt lat="48.59672" lon="1.96092">
        <ele>178.94</ele>
        <time>2016-02-15T13:19:01Z</time>
      </trkpt>
      <trkpt lat="48.59688" lon="1.96066">
        <ele>176.06</ele>
        <time>2016-02-15T13:19:17Z</time>
      </trkpt>
      <trkpt lat="48.59696" lon="1.96038">
        <ele>174.14</ele>
        <time>2016-02-15T13:19:32Z</time>
      </trkpt>
      <trkpt lat="48.59709" lon="1.96013">
        <ele>171.73</ele>
        <time>2016-02-15T13:19:45Z</time>
      </trkpt>
      <trkpt lat="48.5971" lon="1.96011">
        <ele>172.21</ele>
        <time>2016-02-15T13:19:46Z</time>
      </trkpt>
      <trkpt lat="48.59719" lon="1.96002">
        <ele>171.73</ele>
        <time>2016-02-15T13:19:54Z</time>
      </trkpt>
      <trkpt lat="48.5972" lon="1.95998">
        <ele>172.21</ele>
        <time>2016-02-15T13:19:56Z</time>
      </trkpt>
      <trkpt lat="48.5973" lon="1.95968">
        <ele>170.77</ele>
        <time>2016-02-15T13:20:09Z</time>
      </trkpt>
      <trkpt lat="48.59738" lon="1.95968">
        <ele>170.77</ele>
        <time>2016-02-15T13:20:20Z</time>
      </trkpt>
      <trkpt lat="48.59746" lon="1.95949">
        <ele>169.33</ele>
        <time>2016-02-15T13:20:31Z</time>
      </trkpt>
      <trkpt lat="48.59758" lon="1.95923">
        <ele>167.89</ele>
        <time>2016-02-15T13:20:46Z</time>
      </trkpt>
      <trkpt lat="48.59767" lon="1.95896">
        <ele>166.93</ele>
        <time>2016-02-15T13:21:01Z</time>
      </trkpt>
      <trkpt lat="48.59775" lon="1.9588">
        <ele>165.96</ele>
        <time>2016-02-15T13:21:10Z</time>
      </trkpt>
      <trkpt lat="48.59779" lon="1.9587">
        <ele>165.96</ele>
        <time>2016-02-15T13:21:14Z</time>
      </trkpt>
      <trkpt lat="48.59786" lon="1.95851">
        <ele>165</ele>
        <time>2016-02-15T13:21:24Z</time>
      </trkpt>
      <trkpt lat="48.59788" lon="1.95847">
        <ele>165</ele>
        <time>2016-02-15T13:21:26Z</time>
      </trkpt>
      <trkpt lat="48.59791" lon="1.95842">
        <ele>165</ele>
        <time>2016-02-15T13:21:29Z</time>
      </trkpt>
      <trkpt lat="48.59795" lon="1.95835">
        <ele>164.52</ele>
        <time>2016-02-15T13:21:32Z</time>
      </trkpt>
      <trkpt lat="48.59799" lon="1.95821">
        <ele>164.52</ele>
        <time>2016-02-15T13:21:38Z</time>
      </trkpt>
      <trkpt lat="48.59818" lon="1.95788">
        <ele>163.56</ele>
        <time>2016-02-15T13:21:55Z</time>
      </trkpt>
      <trkpt lat="48.59822" lon="1.95782">
        <ele>163.56</ele>
        <time>2016-02-15T13:21:59Z</time>
      </trkpt>
      <trkpt lat="48.59827" lon="1.95772">
        <ele>162.6</ele>
        <time>2016-02-15T13:22:04Z</time>
      </trkpt>
      <trkpt lat="48.59832" lon="1.95753">
        <ele>162.12</ele>
        <time>2016-02-15T13:22:13Z</time>
      </trkpt>
      <trkpt lat="48.59837" lon="1.95737">
        <ele>161.64</ele>
        <time>2016-02-15T13:22:20Z</time>
      </trkpt>
      <trkpt lat="48.59845" lon="1.95721">
        <ele>160.68</ele>
        <time>2016-02-15T13:22:28Z</time>
      </trkpt>
      <trkpt lat="48.59847" lon="1.95716">
        <ele>160.2</ele>
        <time>2016-02-15T13:22:31Z</time>
      </trkpt>
      <trkpt lat="48.59861" lon="1.95691">
        <ele>160.2</ele>
        <time>2016-02-15T13:22:48Z</time>
      </trkpt>
      <trkpt lat="48.59875" lon="1.95663">
        <ele>159.72</ele>
        <time>2016-02-15T13:23:03Z</time>
      </trkpt>
      <trkpt lat="48.59876" lon="1.95659">
        <ele>159.72</ele>
        <time>2016-02-15T13:23:05Z</time>
      </trkpt>
      <trkpt lat="48.59886" lon="1.95636">
        <ele>158.75</ele>
        <time>2016-02-15T13:23:20Z</time>
      </trkpt>
      <trkpt lat="48.599" lon="1.95608">
        <ele>157.79</ele>
        <time>2016-02-15T13:23:35Z</time>
      </trkpt>
      <trkpt lat="48.59903" lon="1.95603">
        <ele>157.79</ele>
        <time>2016-02-15T13:23:38Z</time>
      </trkpt>
      <trkpt lat="48.59905" lon="1.956">
        <ele>157.79</ele>
        <time>2016-02-15T13:23:40Z</time>
      </trkpt>
      <trkpt lat="48.59918" lon="1.95582">
        <ele>157.79</ele>
        <time>2016-02-15T13:23:50Z</time>
      </trkpt>
      <trkpt lat="48.59926" lon="1.95554">
        <ele>156.83</ele>
        <time>2016-02-15T13:24:05Z</time>
      </trkpt>
      <trkpt lat="48.59936" lon="1.95531">
        <ele>155.39</ele>
        <time>2016-02-15T13:24:17Z</time>
      </trkpt>
      <trkpt lat="48.59939" lon="1.9552">
        <ele>154.91</ele>
        <time>2016-02-15T13:24:23Z</time>
      </trkpt>
      <trkpt lat="48.59949" lon="1.95499">
        <ele>152.03</ele>
        <time>2016-02-15T13:24:38Z</time>
      </trkpt>
      <trkpt lat="48.59953" lon="1.95486">
        <ele>151.06</ele>
        <time>2016-02-15T13:24:47Z</time>
      </trkpt>
      <trkpt lat="48.5997" lon="1.95457">
        <ele>149.14</ele>
        <time>2016-02-15T13:25:03Z</time>
      </trkpt>
      <trkpt lat="48.59977" lon="1.95438">
        <ele>148.66</ele>
        <time>2016-02-15T13:25:10Z</time>
      </trkpt>
      <trkpt lat="48.59991" lon="1.95412">
        <ele>147.7</ele>
        <time>2016-02-15T13:25:25Z</time>
      </trkpt>
      <trkpt lat="48.60004" lon="1.95386">
        <ele>146.74</ele>
        <time>2016-02-15T13:25:40Z</time>
      </trkpt>
      <trkpt lat="48.60016" lon="1.95354">
        <ele>147.7</ele>
        <time>2016-02-15T13:25:56Z</time>
      </trkpt>
      <trkpt lat="48.60028" lon="1.95328">
        <ele>147.22</ele>
        <time>2016-02-15T13:26:11Z</time>
      </trkpt>
      <trkpt lat="48.60036" lon="1.9531">
        <ele>146.26</ele>
        <time>2016-02-15T13:26:24Z</time>
      </trkpt>
      <trkpt lat="48.60037" lon="1.95309">
        <ele>146.26</ele>
        <time>2016-02-15T13:26:26Z</time>
      </trkpt>
      <trkpt lat="48.60048" lon="1.95309">
        <ele>145.3</ele>
        <time>2016-02-15T13:26:35Z</time>
      </trkpt>
      <trkpt lat="48.60049" lon="1.95286">
        <ele>144.34</ele>
        <time>2016-02-15T13:26:48Z</time>
      </trkpt>
      <trkpt lat="48.60051" lon="1.95282">
        <ele>144.82</ele>
        <time>2016-02-15T13:26:52Z</time>
      </trkpt>
      <trkpt lat="48.60053" lon="1.95282">
        <ele>144.34</ele>
        <time>2016-02-15T13:26:54Z</time>
      </trkpt>
      <trkpt lat="48.60075" lon="1.95302">
        <ele>144.82</ele>
        <time>2016-02-15T13:27:05Z</time>
      </trkpt>
      <trkpt lat="48.60078" lon="1.95305">
        <ele>144.34</ele>
        <time>2016-02-15T13:27:07Z</time>
      </trkpt>
      <trkpt lat="48.6008" lon="1.95307">
        <ele>144.34</ele>
        <time>2016-02-15T13:27:08Z</time>
      </trkpt>
      <trkpt lat="48.60082" lon="1.95308">
        <ele>144.34</ele>
        <time>2016-02-15T13:27:09Z</time>
      </trkpt>
      <trkpt lat="48.60101" lon="1.95329">
        <ele>142.89</ele>
        <time>2016-02-15T13:27:26Z</time>
      </trkpt>
      <trkpt lat="48.60119" lon="1.95349">
        <ele>142.89</ele>
        <time>2016-02-15T13:27:41Z</time>
      </trkpt>
      <trkpt lat="48.60134" lon="1.95369">
        <ele>142.41</ele>
        <time>2016-02-15T13:27:56Z</time>
      </trkpt>
      <trkpt lat="48.60144" lon="1.95376">
        <ele>141.93</ele>
        <time>2016-02-15T13:28:02Z</time>
      </trkpt>
      <trkpt lat="48.60159" lon="1.95391">
        <ele>141.93</ele>
        <time>2016-02-15T13:28:13Z</time>
      </trkpt>
      <trkpt lat="48.60191" lon="1.95406">
        <ele>141.45</ele>
        <time>2016-02-15T13:28:23Z</time>
      </trkpt>
      <trkpt lat="48.6022" lon="1.95429">
        <ele>141.93</ele>
        <time>2016-02-15T13:28:41Z</time>
      </trkpt>
      <trkpt lat="48.60235" lon="1.95449">
        <ele>140.97</ele>
        <time>2016-02-15T13:28:56Z</time>
      </trkpt>
      <trkpt lat="48.60255" lon="1.95466">
        <ele>140.49</ele>
        <time>2016-02-15T13:29:10Z</time>
      </trkpt>
      <trkpt lat="48.60267" lon="1.95492">
        <ele>138.57</ele>
        <time>2016-02-15T13:29:25Z</time>
      </trkpt>
      <trkpt lat="48.60284" lon="1.95505">
        <ele>138.57</ele>
        <time>2016-02-15T13:29:41Z</time>
      </trkpt>
      <trkpt lat="48.60309" lon="1.95531">
        <ele>138.57</ele>
        <time>2016-02-15T13:29:57Z</time>
      </trkpt>
      <trkpt lat="48.60318" lon="1.95542">
        <ele>138.57</ele>
        <time>2016-02-15T13:30:03Z</time>
      </trkpt>
      <trkpt lat="48.60338" lon="1.95563">
        <ele>138.57</ele>
        <time>2016-02-15T13:30:17Z</time>
      </trkpt>
      <trkpt lat="48.60348" lon="1.95573">
        <ele>138.57</ele>
        <time>2016-02-15T13:30:26Z</time>
      </trkpt>
      <trkpt lat="48.60372" lon="1.95596">
        <ele>137.61</ele>
        <time>2016-02-15T13:30:42Z</time>
      </trkpt>
      <trkpt lat="48.60369" lon="1.95611">
        <ele>139.05</ele>
        <time>2016-02-15T13:30:49Z</time>
      </trkpt>
      <trkpt lat="48.60365" lon="1.95615">
        <ele>138.57</ele>
        <time>2016-02-15T13:30:52Z</time>
      </trkpt>
      <trkpt lat="48.60358" lon="1.9563">
        <ele>137.61</ele>
        <time>2016-02-15T13:31:00Z</time>
      </trkpt>
      <trkpt lat="48.60343" lon="1.95663">
        <ele>137.13</ele>
        <time>2016-02-15T13:31:15Z</time>
      </trkpt>
      <trkpt lat="48.60342" lon="1.95665">
        <ele>137.13</ele>
        <time>2016-02-15T13:31:16Z</time>
      </trkpt>
      <trkpt lat="48.60333" lon="1.95683">
        <ele>137.13</ele>
        <time>2016-02-15T13:31:24Z</time>
      </trkpt>
      <trkpt lat="48.6032" lon="1.95705">
        <ele>137.13</ele>
        <time>2016-02-15T13:31:36Z</time>
      </trkpt>
      <trkpt lat="48.60312" lon="1.95731">
        <ele>137.13</ele>
        <time>2016-02-15T13:31:49Z</time>
      </trkpt>
      <trkpt lat="48.60311" lon="1.95734">
        <ele>137.13</ele>
        <time>2016-02-15T13:31:51Z</time>
      </trkpt>
      <trkpt lat="48.60305" lon="1.95741">
        <ele>137.13</ele>
        <time>2016-02-15T13:31:54Z</time>
      </trkpt>
      <trkpt lat="48.60293" lon="1.95756">
        <ele>136.64</ele>
        <time>2016-02-15T13:32:04Z</time>
      </trkpt>
      <trkpt lat="48.60283" lon="1.9578">
        <ele>136.16</ele>
        <time>2016-02-15T13:32:18Z</time>
      </trkpt>
      <trkpt lat="48.60273" lon="1.95799">
        <ele>137.61</ele>
        <time>2016-02-15T13:32:32Z</time>
      </trkpt>
      <trkpt lat="48.6027" lon="1.95797">
        <ele>136.64</ele>
        <time>2016-02-15T13:32:49Z</time>
      </trkpt>
      <trkpt lat="48.60268" lon="1.95806">
        <ele>137.61</ele>
        <time>2016-02-15T13:33:03Z</time>
      </trkpt>
      <trkpt lat="48.60267" lon="1.95808">
        <ele>137.13</ele>
        <time>2016-02-15T13:33:18Z</time>
      </trkpt>
      <trkpt lat="48.60265" lon="1.95813">
        <ele>135.68</ele>
        <time>2016-02-15T13:33:30Z</time>
      </trkpt>
      <trkpt lat="48.6026" lon="1.95826">
        <ele>136.64</ele>
        <time>2016-02-15T13:33:37Z</time>
      </trkpt>
      <trkpt lat="48.60249" lon="1.95845">
        <ele>137.61</ele>
        <time>2016-02-15T13:33:48Z</time>
      </trkpt>
      <trkpt lat="48.60235" lon="1.95878">
        <ele>138.09</ele>
        <time>2016-02-15T13:34:03Z</time>
      </trkpt>
      <trkpt lat="48.60222" lon="1.95904">
        <ele>138.57</ele>
        <time>2016-02-15T13:34:20Z</time>
      </trkpt>
      <trkpt lat="48.60218" lon="1.95909">
        <ele>140.01</ele>
        <time>2016-02-15T13:34:23Z</time>
      </trkpt>
      <trkpt lat="48.60215" lon="1.95922">
        <ele>141.93</ele>
        <time>2016-02-15T13:34:31Z</time>
      </trkpt>
      <trkpt lat="48.60209" lon="1.95933">
        <ele>143.85</ele>
        <time>2016-02-15T13:34:39Z</time>
      </trkpt>
      <trkpt lat="48.60195" lon="1.95961">
        <ele>145.78</ele>
        <time>2016-02-15T13:34:53Z</time>
      </trkpt>
      <trkpt lat="48.60189" lon="1.95975">
        <ele>146.26</ele>
        <time>2016-02-15T13:35:01Z</time>
      </trkpt>
      <trkpt lat="48.60173" lon="1.96004">
        <ele>145.78</ele>
        <time>2016-02-15T13:35:21Z</time>
      </trkpt>
      <trkpt lat="48.60169" lon="1.96008">
        <ele>146.26</ele>
        <time>2016-02-15T13:35:25Z</time>
      </trkpt>
      <trkpt lat="48.60164" lon="1.96013">
        <ele>146.26</ele>
        <time>2016-02-15T13:35:29Z</time>
      </trkpt>
      <trkpt lat="48.60156" lon="1.9604">
        <ele>142.89</ele>
        <time>2016-02-15T13:35:41Z</time>
      </trkpt>
      <trkpt lat="48.60149" lon="1.96052">
        <ele>143.85</ele>
        <time>2016-02-15T13:35:49Z</time>
      </trkpt>
      <trkpt lat="48.60147" lon="1.96058">
        <ele>142.89</ele>
        <time>2016-02-15T13:35:52Z</time>
      </trkpt>
      <trkpt lat="48.60135" lon="1.96088">
        <ele>146.26</ele>
        <time>2016-02-15T13:36:07Z</time>
      </trkpt>
      <trkpt lat="48.60134" lon="1.96089">
        <ele>147.22</ele>
        <time>2016-02-15T13:36:08Z</time>
      </trkpt>
      <trkpt lat="48.60127" lon="1.96098">
        <ele>149.14</ele>
        <time>2016-02-15T13:36:18Z</time>
      </trkpt>
      <trkpt lat="48.60123" lon="1.96114">
        <ele>152.03</ele>
        <time>2016-02-15T13:36:32Z</time>
      </trkpt>
      <trkpt lat="48.60119" lon="1.96119">
        <ele>154.43</ele>
        <time>2016-02-15T13:36:38Z</time>
      </trkpt>
      <trkpt lat="48.60114" lon="1.96127">
        <ele>156.35</ele>
        <time>2016-02-15T13:36:45Z</time>
      </trkpt>
      <trkpt lat="48.60112" lon="1.96131">
        <ele>156.35</ele>
        <time>2016-02-15T13:36:49Z</time>
      </trkpt>
      <trkpt lat="48.60102" lon="1.96147">
        <ele>159.72</ele>
        <time>2016-02-15T13:36:58Z</time>
      </trkpt>
      <trkpt lat="48.60102" lon="1.96148">
        <ele>159.72</ele>
        <time>2016-02-15T13:36:59Z</time>
      </trkpt>
      <trkpt lat="48.60092" lon="1.96167">
        <ele>162.12</ele>
        <time>2016-02-15T13:37:14Z</time>
      </trkpt>
      <trkpt lat="48.60088" lon="1.96178">
        <ele>163.56</ele>
        <time>2016-02-15T13:37:20Z</time>
      </trkpt>
      <trkpt lat="48.60082" lon="1.96194">
        <ele>165.48</ele>
        <time>2016-02-15T13:37:32Z</time>
      </trkpt>
      <trkpt lat="48.6008" lon="1.962">
        <ele>168.85</ele>
        <time>2016-02-15T13:37:36Z</time>
      </trkpt>
      <trkpt lat="48.60079" lon="1.96201">
        <ele>168.85</ele>
        <time>2016-02-15T13:37:37Z</time>
      </trkpt>
      <trkpt lat="48.60076" lon="1.96205">
        <ele>170.77</ele>
        <time>2016-02-15T13:37:42Z</time>
      </trkpt>
      <trkpt lat="48.60072" lon="1.96212">
        <ele>171.25</ele>
        <time>2016-02-15T13:37:50Z</time>
      </trkpt>
      <trkpt lat="48.6007" lon="1.96218">
        <ele>173.17</ele>
        <time>2016-02-15T13:37:53Z</time>
      </trkpt>
      <trkpt lat="48.60063" lon="1.96231">
        <ele>174.62</ele>
        <time>2016-02-15T13:38:05Z</time>
      </trkpt>
      <trkpt lat="48.60061" lon="1.96236">
        <ele>175.1</ele>
        <time>2016-02-15T13:38:19Z</time>
      </trkpt>
      <trkpt lat="48.6006" lon="1.96239">
        <ele>174.14</ele>
        <time>2016-02-15T13:38:33Z</time>
      </trkpt>
      <trkpt lat="48.60058" lon="1.96244">
        <ele>174.14</ele>
        <time>2016-02-15T13:38:48Z</time>
      </trkpt>
      <trkpt lat="48.60055" lon="1.96249">
        <ele>173.17</ele>
        <time>2016-02-15T13:39:05Z</time>
      </trkpt>
      <trkpt lat="48.60052" lon="1.96254">
        <ele>173.66</ele>
        <time>2016-02-15T13:39:07Z</time>
      </trkpt>
      <trkpt lat="48.60045" lon="1.96267">
        <ele>170.77</ele>
        <time>2016-02-15T13:39:17Z</time>
      </trkpt>
      <trkpt lat="48.60037" lon="1.96282">
        <ele>170.77</ele>
        <time>2016-02-15T13:39:29Z</time>
      </trkpt>
      <trkpt lat="48.6002" lon="1.96314">
        <ele>171.73</ele>
        <time>2016-02-15T13:39:47Z</time>
      </trkpt>
      <trkpt lat="48.6001" lon="1.96336">
        <ele>171.73</ele>
        <time>2016-02-15T13:40:02Z</time>
      </trkpt>
      <trkpt lat="48.6001" lon="1.96338">
        <ele>171.73</ele>
        <time>2016-02-15T13:40:03Z</time>
      </trkpt>
      <trkpt lat="48.59995" lon="1.96372">
        <ele>168.85</ele>
        <time>2016-02-15T13:40:21Z</time>
      </trkpt>
      <trkpt lat="48.59983" lon="1.96391">
        <ele>165</ele>
        <time>2016-02-15T13:40:34Z</time>
      </trkpt>
      <trkpt lat="48.59983" lon="1.96395">
        <ele>165.48</ele>
        <time>2016-02-15T13:40:35Z</time>
      </trkpt>
      <trkpt lat="48.5997" lon="1.9643">
        <ele>162.12</ele>
        <time>2016-02-15T13:40:52Z</time>
      </trkpt>
      <trkpt lat="48.59954" lon="1.96462">
        <ele>160.2</ele>
        <time>2016-02-15T13:41:10Z</time>
      </trkpt>
      <trkpt lat="48.59952" lon="1.96463">
        <ele>160.68</ele>
        <time>2016-02-15T13:41:11Z</time>
      </trkpt>
      <trkpt lat="48.59936" lon="1.9649">
        <ele>162.12</ele>
        <time>2016-02-15T13:41:28Z</time>
      </trkpt>
      <trkpt lat="48.5992" lon="1.96517">
        <ele>163.56</ele>
        <time>2016-02-15T13:41:45Z</time>
      </trkpt>
      <trkpt lat="48.59909" lon="1.96541">
        <ele>165</ele>
        <time>2016-02-15T13:41:58Z</time>
      </trkpt>
      <trkpt lat="48.59895" lon="1.96572">
        <ele>168.37</ele>
        <time>2016-02-15T13:42:15Z</time>
      </trkpt>
      <trkpt lat="48.59895" lon="1.96574">
        <ele>168.37</ele>
        <time>2016-02-15T13:42:16Z</time>
      </trkpt>
      <trkpt lat="48.59886" lon="1.96588">
        <ele>169.33</ele>
        <time>2016-02-15T13:42:27Z</time>
      </trkpt>
      <trkpt lat="48.59877" lon="1.9661">
        <ele>171.73</ele>
        <time>2016-02-15T13:42:43Z</time>
      </trkpt>
      <trkpt lat="48.59866" lon="1.96631">
        <ele>169.81</ele>
        <time>2016-02-15T13:42:55Z</time>
      </trkpt>
      <trkpt lat="48.59861" lon="1.96644">
        <ele>171.25</ele>
        <time>2016-02-15T13:43:02Z</time>
      </trkpt>
      <trkpt lat="48.59854" lon="1.96657">
        <ele>171.73</ele>
        <time>2016-02-15T13:43:10Z</time>
      </trkpt>
      <trkpt lat="48.59843" lon="1.96681">
        <ele>173.17</ele>
        <time>2016-02-15T13:43:24Z</time>
      </trkpt>
      <trkpt lat="48.59829" lon="1.96711">
        <ele>171.73</ele>
        <time>2016-02-15T13:43:38Z</time>
      </trkpt>
      <trkpt lat="48.59814" lon="1.96737">
        <ele>170.77</ele>
        <time>2016-02-15T13:43:53Z</time>
      </trkpt>
      <trkpt lat="48.59802" lon="1.96762">
        <ele>170.29</ele>
        <time>2016-02-15T13:44:08Z</time>
      </trkpt>
      <trkpt lat="48.5979" lon="1.96786">
        <ele>166.93</ele>
        <time>2016-02-15T13:44:21Z</time>
      </trkpt>
      <trkpt lat="48.59787" lon="1.96796">
        <ele>166.93</ele>
        <time>2016-02-15T13:44:26Z</time>
      </trkpt>
      <trkpt lat="48.59774" lon="1.96816">
        <ele>164.04</ele>
        <time>2016-02-15T13:44:39Z</time>
      </trkpt>
      <trkpt lat="48.59765" lon="1.96831">
        <ele>162.6</ele>
        <time>2016-02-15T13:44:50Z</time>
      </trkpt>
      <trkpt lat="48.59755" lon="1.96858">
        <ele>158.75</ele>
        <time>2016-02-15T13:45:03Z</time>
      </trkpt>
      <trkpt lat="48.59754" lon="1.9686">
        <ele>159.24</ele>
        <time>2016-02-15T13:45:04Z</time>
      </trkpt>
      <trkpt lat="48.5974" lon="1.96885">
        <ele>157.31</ele>
        <time>2016-02-15T13:45:20Z</time>
      </trkpt>
      <trkpt lat="48.59735" lon="1.96916">
        <ele>154.43</ele>
        <time>2016-02-15T13:45:38Z</time>
      </trkpt>
      <trkpt lat="48.59752" lon="1.96931">
        <ele>153.47</ele>
        <time>2016-02-15T13:45:51Z</time>
      </trkpt>
      <trkpt lat="48.59779" lon="1.96956">
        <ele>153.95</ele>
        <time>2016-02-15T13:46:10Z</time>
      </trkpt>
      <trkpt lat="48.59789" lon="1.96972">
        <ele>153.95</ele>
        <time>2016-02-15T13:46:20Z</time>
      </trkpt>
      <trkpt lat="48.59799" lon="1.96985">
        <ele>152.03</ele>
        <time>2016-02-15T13:46:29Z</time>
      </trkpt>
      <trkpt lat="48.59832" lon="1.97012">
        <ele>151.54</ele>
        <time>2016-02-15T13:46:49Z</time>
      </trkpt>
      <trkpt lat="48.59854" lon="1.97034">
        <ele>152.51</ele>
        <time>2016-02-15T13:47:07Z</time>
      </trkpt>
      <trkpt lat="48.5988" lon="1.97058">
        <ele>151.06</ele>
        <time>2016-02-15T13:47:27Z</time>
      </trkpt>
      <trkpt lat="48.59901" lon="1.9708">
        <ele>150.1</ele>
        <time>2016-02-15T13:47:44Z</time>
      </trkpt>
      <trkpt lat="48.59925" lon="1.97107">
        <ele>149.14</ele>
        <time>2016-02-15T13:48:02Z</time>
      </trkpt>
      <trkpt lat="48.59949" lon="1.97127">
        <ele>148.66</ele>
        <time>2016-02-15T13:48:19Z</time>
      </trkpt>
      <trkpt lat="48.5996" lon="1.97138">
        <ele>148.18</ele>
        <time>2016-02-15T13:48:27Z</time>
      </trkpt>
      <trkpt lat="48.59984" lon="1.9716">
        <ele>147.22</ele>
        <time>2016-02-15T13:48:46Z</time>
      </trkpt>
      <trkpt lat="48.60004" lon="1.97185">
        <ele>146.26</ele>
        <time>2016-02-15T13:49:04Z</time>
      </trkpt>
      <trkpt lat="48.6002" lon="1.97199">
        <ele>148.66</ele>
        <time>2016-02-15T13:49:15Z</time>
      </trkpt>
      <trkpt lat="48.60041" lon="1.97219">
        <ele>148.18</ele>
        <time>2016-02-15T13:49:31Z</time>
      </trkpt>
      <trkpt lat="48.60045" lon="1.97222">
        <ele>150.1</ele>
        <time>2016-02-15T13:49:34Z</time>
      </trkpt>
      <trkpt lat="48.60066" lon="1.97246">
        <ele>151.54</ele>
        <time>2016-02-15T13:49:52Z</time>
      </trkpt>
      <trkpt lat="48.60088" lon="1.97267">
        <ele>151.54</ele>
        <time>2016-02-15T13:50:11Z</time>
      </trkpt>
      <trkpt lat="48.60113" lon="1.97292">
        <ele>152.03</ele>
        <time>2016-02-15T13:50:30Z</time>
      </trkpt>
      <trkpt lat="48.60125" lon="1.97307">
        <ele>152.03</ele>
        <time>2016-02-15T13:50:41Z</time>
      </trkpt>
      <trkpt lat="48.60151" lon="1.9733">
        <ele>152.03</ele>
        <time>2016-02-15T13:51:00Z</time>
      </trkpt>
      <trkpt lat="48.60175" lon="1.97358">
        <ele>150.1</ele>
        <time>2016-02-15T13:51:21Z</time>
      </trkpt>
      <trkpt lat="48.60186" lon="1.97368">
        <ele>150.1</ele>
        <time>2016-02-15T13:51:29Z</time>
      </trkpt>
      <trkpt lat="48.60214" lon="1.97395">
        <ele>147.7</ele>
        <time>2016-02-15T13:51:50Z</time>
      </trkpt>
      <trkpt lat="48.60234" lon="1.9741">
        <ele>144.34</ele>
        <time>2016-02-15T13:52:06Z</time>
      </trkpt>
      <trkpt lat="48.60247" lon="1.97428">
        <ele>140.97</ele>
        <time>2016-02-15T13:52:21Z</time>
      </trkpt>
      <trkpt lat="48.60252" lon="1.97431">
        <ele>139.05</ele>
        <time>2016-02-15T13:52:25Z</time>
      </trkpt>
      <trkpt lat="48.60271" lon="1.97445">
        <ele>135.68</ele>
        <time>2016-02-15T13:52:42Z</time>
      </trkpt>
      <trkpt lat="48.60282" lon="1.97457">
        <ele>132.32</ele>
        <time>2016-02-15T13:52:54Z</time>
      </trkpt>
      <trkpt lat="48.60302" lon="1.97474">
        <ele>128.95</ele>
        <time>2016-02-15T13:53:13Z</time>
      </trkpt>
      <trkpt lat="48.60324" lon="1.975">
        <ele>126.07</ele>
        <time>2016-02-15T13:53:30Z</time>
      </trkpt>
      <trkpt lat="48.6034" lon="1.97518">
        <ele>124.63</ele>
        <time>2016-02-15T13:53:46Z</time>
      </trkpt>
      <trkpt lat="48.60344" lon="1.97525">
        <ele>124.15</ele>
        <time>2016-02-15T13:53:50Z</time>
      </trkpt>
      <trkpt lat="48.60369" lon="1.97551">
        <ele>122.22</ele>
        <time>2016-02-15T13:54:08Z</time>
      </trkpt>
      <trkpt lat="48.60394" lon="1.97573">
        <ele>121.26</ele>
        <time>2016-02-15T13:54:26Z</time>
      </trkpt>
      <trkpt lat="48.60412" lon="1.97596">
        <ele>120.3</ele>
        <time>2016-02-15T13:54:44Z</time>
      </trkpt>
      <trkpt lat="48.60432" lon="1.9762">
        <ele>119.82</ele>
        <time>2016-02-15T13:55:02Z</time>
      </trkpt>
      <trkpt lat="48.60453" lon="1.97641">
        <ele>119.34</ele>
        <time>2016-02-15T13:55:17Z</time>
      </trkpt>
      <trkpt lat="48.60476" lon="1.97665">
        <ele>118.86</ele>
        <time>2016-02-15T13:55:36Z</time>
      </trkpt>
      <trkpt lat="48.60495" lon="1.97686">
        <ele>116.46</ele>
        <time>2016-02-15T13:55:54Z</time>
      </trkpt>
      <trkpt lat="48.6051" lon="1.97702">
        <ele>116.94</ele>
        <time>2016-02-15T13:56:06Z</time>
      </trkpt>
      <trkpt lat="48.60515" lon="1.97705">
        <ele>115.98</ele>
        <time>2016-02-15T13:56:09Z</time>
      </trkpt>
      <trkpt lat="48.60528" lon="1.97729">
        <ele>115.5</ele>
        <time>2016-02-15T13:56:26Z</time>
      </trkpt>
      <trkpt lat="48.60527" lon="1.97734">
        <ele>115.5</ele>
        <time>2016-02-15T13:56:29Z</time>
      </trkpt>
      <trkpt lat="48.60513" lon="1.97768">
        <ele>115.5</ele>
        <time>2016-02-15T13:56:45Z</time>
      </trkpt>
      <trkpt lat="48.60505" lon="1.97789">
        <ele>115.01</ele>
        <time>2016-02-15T13:56:57Z</time>
      </trkpt>
      <trkpt lat="48.605" lon="1.97801">
        <ele>114.53</ele>
        <time>2016-02-15T13:57:03Z</time>
      </trkpt>
      <trkpt lat="48.60484" lon="1.97837">
        <ele>115.01</ele>
        <time>2016-02-15T13:57:20Z</time>
      </trkpt>
      <trkpt lat="48.60468" lon="1.97873">
        <ele>113.57</ele>
        <time>2016-02-15T13:57:41Z</time>
      </trkpt>
      <trkpt lat="48.60454" lon="1.97905">
        <ele>114.05</ele>
        <time>2016-02-15T13:57:57Z</time>
      </trkpt>
      <trkpt lat="48.60436" lon="1.97937">
        <ele>113.57</ele>
        <time>2016-02-15T13:58:16Z</time>
      </trkpt>
      <trkpt lat="48.60419" lon="1.97969">
        <ele>113.09</ele>
        <time>2016-02-15T13:58:31Z</time>
      </trkpt>
      <trkpt lat="48.60406" lon="1.97998">
        <ele>112.61</ele>
        <time>2016-02-15T13:58:47Z</time>
      </trkpt>
      <trkpt lat="48.60391" lon="1.98035">
        <ele>111.65</ele>
        <time>2016-02-15T13:59:07Z</time>
      </trkpt>
      <trkpt lat="48.60373" lon="1.98062">
        <ele>110.69</ele>
        <time>2016-02-15T13:59:22Z</time>
      </trkpt>
      <trkpt lat="48.6036" lon="1.98087">
        <ele>109.25</ele>
        <time>2016-02-15T13:59:37Z</time>
      </trkpt>
      <trkpt lat="48.60352" lon="1.9811">
        <ele>108.29</ele>
        <time>2016-02-15T13:59:50Z</time>
      </trkpt>
      <trkpt lat="48.6035" lon="1.98115">
        <ele>107.81</ele>
        <time>2016-02-15T13:59:52Z</time>
      </trkpt>
      <trkpt lat="48.6034" lon="1.98136">
        <ele>106.84</ele>
        <time>2016-02-15T14:00:04Z</time>
      </trkpt>
      <trkpt lat="48.60339" lon="1.98166">
        <ele>108.29</ele>
        <time>2016-02-15T14:00:19Z</time>
      </trkpt>
      <trkpt lat="48.60343" lon="1.98171">
        <ele>106.84</ele>
        <time>2016-02-15T14:00:23Z</time>
      </trkpt>
      <trkpt lat="48.60352" lon="1.982">
        <ele>106.36</ele>
        <time>2016-02-15T14:00:40Z</time>
      </trkpt>
      <trkpt lat="48.60351" lon="1.98212">
        <ele>106.36</ele>
        <time>2016-02-15T14:00:47Z</time>
      </trkpt>
      <trkpt lat="48.60339" lon="1.98248">
        <ele>107.32</ele>
        <time>2016-02-15T14:01:05Z</time>
      </trkpt>
      <trkpt lat="48.60335" lon="1.98255">
        <ele>108.29</ele>
        <time>2016-02-15T14:01:11Z</time>
      </trkpt>
      <trkpt lat="48.60328" lon="1.98269">
        <ele>111.65</ele>
        <time>2016-02-15T14:01:20Z</time>
      </trkpt>
      <trkpt lat="48.60325" lon="1.98273">
        <ele>111.17</ele>
        <time>2016-02-15T14:01:27Z</time>
      </trkpt>
      <trkpt lat="48.60322" lon="1.98273">
        <ele>112.61</ele>
        <time>2016-02-15T14:01:30Z</time>
      </trkpt>
      <trkpt lat="48.60312" lon="1.98281">
        <ele>114.05</ele>
        <time>2016-02-15T14:01:39Z</time>
      </trkpt>
      <trkpt lat="48.60291" lon="1.98296">
        <ele>115.98</ele>
        <time>2016-02-15T14:01:57Z</time>
      </trkpt>
      <trkpt lat="48.60271" lon="1.98302">
        <ele>118.86</ele>
        <time>2016-02-15T14:02:15Z</time>
      </trkpt>
      <trkpt lat="48.6026" lon="1.98305">
        <ele>117.9</ele>
        <time>2016-02-15T14:02:22Z</time>
      </trkpt>
      <trkpt lat="48.6024" lon="1.98321">
        <ele>117.42</ele>
        <time>2016-02-15T14:02:39Z</time>
      </trkpt>
      <trkpt lat="48.60226" lon="1.98339">
        <ele>116.46</ele>
        <time>2016-02-15T14:02:55Z</time>
      </trkpt>
      <trkpt lat="48.60203" lon="1.98361">
        <ele>114.05</ele>
        <time>2016-02-15T14:03:13Z</time>
      </trkpt>
      <trkpt lat="48.60187" lon="1.98364">
        <ele>113.09</ele>
        <time>2016-02-15T14:03:27Z</time>
      </trkpt>
      <trkpt lat="48.60163" lon="1.98376">
        <ele>114.53</ele>
        <time>2016-02-15T14:03:44Z</time>
      </trkpt>
      <trkpt lat="48.60151" lon="1.9837">
        <ele>116.94</ele>
        <time>2016-02-15T14:03:53Z</time>
      </trkpt>
      <trkpt lat="48.60139" lon="1.98389">
        <ele>118.38</ele>
        <time>2016-02-15T14:04:07Z</time>
      </trkpt>
      <trkpt lat="48.60116" lon="1.98402">
        <ele>118.86</ele>
        <time>2016-02-15T14:04:25Z</time>
      </trkpt>
      <trkpt lat="48.60102" lon="1.98419">
        <ele>119.82</ele>
        <time>2016-02-15T14:04:38Z</time>
      </trkpt>
      <trkpt lat="48.60082" lon="1.98434">
        <ele>121.74</ele>
        <time>2016-02-15T14:04:55Z</time>
      </trkpt>
      <trkpt lat="48.60065" lon="1.98446">
        <ele>121.26</ele>
        <time>2016-02-15T14:05:10Z</time>
      </trkpt>
      <trkpt lat="48.60056" lon="1.98457">
        <ele>121.26</ele>
        <time>2016-02-15T14:05:16Z</time>
      </trkpt>
      <trkpt lat="48.60029" lon="1.98475">
        <ele>119.82</ele>
        <time>2016-02-15T14:05:36Z</time>
      </trkpt>
      <trkpt lat="48.60021" lon="1.98484">
        <ele>119.34</ele>
        <time>2016-02-15T14:05:45Z</time>
      </trkpt>
      <trkpt lat="48.60021" lon="1.98491">
        <ele>118.86</ele>
        <time>2016-02-15T14:06:01Z</time>
      </trkpt>
      <trkpt lat="48.6002" lon="1.9849">
        <ele>118.38</ele>
        <time>2016-02-15T14:06:21Z</time>
      </trkpt>
      <trkpt lat="48.60021" lon="1.98487">
        <ele>118.38</ele>
        <time>2016-02-15T14:06:45Z</time>
      </trkpt>
      <trkpt lat="48.60018" lon="1.98488">
        <ele>118.86</ele>
        <time>2016-02-15T14:07:09Z</time>
      </trkpt>
      <trkpt lat="48.60018" lon="1.98486">
        <ele>119.34</ele>
        <time>2016-02-15T14:07:26Z</time>
      </trkpt>
      <trkpt lat="48.60018" lon="1.98486">
        <ele>118.38</ele>
        <time>2016-02-15T14:07:42Z</time>
      </trkpt>
      <trkpt lat="48.60018" lon="1.98481">
        <ele>118.38</ele>
        <time>2016-02-15T14:07:48Z</time>
      </trkpt>
      <trkpt lat="48.60004" lon="1.98462">
        <ele>118.86</ele>
        <time>2016-02-15T14:08:01Z</time>
      </trkpt>
      <trkpt lat="48.59989" lon="1.98449">
        <ele>120.78</ele>
        <time>2016-02-15T14:08:14Z</time>
      </trkpt>
      <trkpt lat="48.59986" lon="1.98445">
        <ele>120.78</ele>
        <time>2016-02-15T14:08:17Z</time>
      </trkpt>
      <trkpt lat="48.5998" lon="1.98436">
        <ele>120.3</ele>
        <time>2016-02-15T14:08:22Z</time>
      </trkpt>
      <trkpt lat="48.59961" lon="1.98416">
        <ele>120.78</ele>
        <time>2016-02-15T14:08:35Z</time>
      </trkpt>
      <trkpt lat="48.59948" lon="1.98396">
        <ele>121.74</ele>
        <time>2016-02-15T14:08:50Z</time>
      </trkpt>
      <trkpt lat="48.59945" lon="1.98389">
        <ele>122.22</ele>
        <time>2016-02-15T14:08:53Z</time>
      </trkpt>
      <trkpt lat="48.59942" lon="1.98376">
        <ele>122.22</ele>
        <time>2016-02-15T14:08:58Z</time>
      </trkpt>
      <trkpt lat="48.5994" lon="1.98368">
        <ele>122.22</ele>
        <time>2016-02-15T14:09:01Z</time>
      </trkpt>
      <trkpt lat="48.5992" lon="1.98347">
        <ele>122.71</ele>
        <time>2016-02-15T14:09:15Z</time>
      </trkpt>
      <trkpt lat="48.59913" lon="1.98343">
        <ele>122.71</ele>
        <time>2016-02-15T14:09:20Z</time>
      </trkpt>
      <trkpt lat="48.59904" lon="1.98327">
        <ele>123.19</ele>
        <time>2016-02-15T14:09:31Z</time>
      </trkpt>
      <trkpt lat="48.59896" lon="1.98311">
        <ele>124.63</ele>
        <time>2016-02-15T14:09:40Z</time>
      </trkpt>
      <trkpt lat="48.59892" lon="1.98303">
        <ele>124.63</ele>
        <time>2016-02-15T14:09:44Z</time>
      </trkpt>
      <trkpt lat="48.59878" lon="1.98287">
        <ele>126.07</ele>
        <time>2016-02-15T14:09:58Z</time>
      </trkpt>
      <trkpt lat="48.59877" lon="1.98286">
        <ele>126.55</ele>
        <time>2016-02-15T14:09:59Z</time>
      </trkpt>
      <trkpt lat="48.59872" lon="1.98281">
        <ele>126.55</ele>
        <time>2016-02-15T14:10:03Z</time>
      </trkpt>
      <trkpt lat="48.59849" lon="1.98271">
        <ele>127.51</ele>
        <time>2016-02-15T14:10:20Z</time>
      </trkpt>
      <trkpt lat="48.59833" lon="1.98264">
        <ele>130.4</ele>
        <time>2016-02-15T14:10:33Z</time>
      </trkpt>
      <trkpt lat="48.59832" lon="1.98263">
        <ele>130.4</ele>
        <time>2016-02-15T14:10:34Z</time>
      </trkpt>
      <trkpt lat="48.59831" lon="1.98262">
        <ele>130.4</ele>
        <time>2016-02-15T14:10:35Z</time>
      </trkpt>
      <trkpt lat="48.59829" lon="1.98262">
        <ele>130.88</ele>
        <time>2016-02-15T14:10:37Z</time>
      </trkpt>
      <trkpt lat="48.59813" lon="1.98256">
        <ele>133.28</ele>
        <time>2016-02-15T14:10:50Z</time>
      </trkpt>
      <trkpt lat="48.59798" lon="1.98253">
        <ele>135.68</ele>
        <time>2016-02-15T14:11:03Z</time>
      </trkpt>
      <trkpt lat="48.59793" lon="1.98254">
        <ele>137.13</ele>
        <time>2016-02-15T14:11:07Z</time>
      </trkpt>
      <trkpt lat="48.59787" lon="1.98247">
        <ele>137.61</ele>
        <time>2016-02-15T14:11:14Z</time>
      </trkpt>
      <trkpt lat="48.59775" lon="1.98229">
        <ele>140.97</ele>
        <time>2016-02-15T14:11:27Z</time>
      </trkpt>
      <trkpt lat="48.59755" lon="1.98218">
        <ele>141.45</ele>
        <time>2016-02-15T14:11:42Z</time>
      </trkpt>
      <trkpt lat="48.59737" lon="1.98211">
        <ele>142.41</ele>
        <time>2016-02-15T14:11:56Z</time>
      </trkpt>
      <trkpt lat="48.59735" lon="1.9821">
        <ele>143.37</ele>
        <time>2016-02-15T14:11:58Z</time>
      </trkpt>
      <trkpt lat="48.59724" lon="1.98199">
        <ele>144.34</ele>
        <time>2016-02-15T14:12:10Z</time>
      </trkpt>
      <trkpt lat="48.59722" lon="1.982">
        <ele>145.3</ele>
        <time>2016-02-15T14:12:15Z</time>
      </trkpt>
      <trkpt lat="48.5972" lon="1.982">
        <ele>145.3</ele>
        <time>2016-02-15T14:12:17Z</time>
      </trkpt>
      <trkpt lat="48.59713" lon="1.98196">
        <ele>146.26</ele>
        <time>2016-02-15T14:12:22Z</time>
      </trkpt>
      <trkpt lat="48.59711" lon="1.98195">
        <ele>146.26</ele>
        <time>2016-02-15T14:12:24Z</time>
      </trkpt>
      <trkpt lat="48.59691" lon="1.98184">
        <ele>147.22</ele>
        <time>2016-02-15T14:12:40Z</time>
      </trkpt>
      <trkpt lat="48.59679" lon="1.9817">
        <ele>149.62</ele>
        <time>2016-02-15T14:12:51Z</time>
      </trkpt>
      <trkpt lat="48.59676" lon="1.98166">
        <ele>149.14</ele>
        <time>2016-02-15T14:12:54Z</time>
      </trkpt>
      <trkpt lat="48.59673" lon="1.98158">
        <ele>150.1</ele>
        <time>2016-02-15T14:12:59Z</time>
      </trkpt>
      <trkpt lat="48.59664" lon="1.98144">
        <ele>150.1</ele>
        <time>2016-02-15T14:13:09Z</time>
      </trkpt>
      <trkpt lat="48.59649" lon="1.98129">
        <ele>150.58</ele>
        <time>2016-02-15T14:13:23Z</time>
      </trkpt>
      <trkpt lat="48.59648" lon="1.98126">
        <ele>150.58</ele>
        <time>2016-02-15T14:13:29Z</time>
      </trkpt>
      <trkpt lat="48.59636" lon="1.98111">
        <ele>151.06</ele>
        <time>2016-02-15T14:13:38Z</time>
      </trkpt>
      <trkpt lat="48.59633" lon="1.98106">
        <ele>150.58</ele>
        <time>2016-02-15T14:13:41Z</time>
      </trkpt>
      <trkpt lat="48.59625" lon="1.98092">
        <ele>151.54</ele>
        <time>2016-02-15T14:13:55Z</time>
      </trkpt>
      <trkpt lat="48.59618" lon="1.98086">
        <ele>151.06</ele>
        <time>2016-02-15T14:14:00Z</time>
      </trkpt>
      <trkpt lat="48.59615" lon="1.98082">
        <ele>151.54</ele>
        <time>2016-02-15T14:14:03Z</time>
      </trkpt>
      <trkpt lat="48.59614" lon="1.98079">
        <ele>151.54</ele>
        <time>2016-02-15T14:14:05Z</time>
      </trkpt>
      <trkpt lat="48.59607" lon="1.98065">
        <ele>152.03</ele>
        <time>2016-02-15T14:14:13Z</time>
      </trkpt>
      <trkpt lat="48.59595" lon="1.98053">
        <ele>152.99</ele>
        <time>2016-02-15T14:14:23Z</time>
      </trkpt>
      <trkpt lat="48.5959" lon="1.98046">
        <ele>152.99</ele>
        <time>2016-02-15T14:14:28Z</time>
      </trkpt>
      <trkpt lat="48.59586" lon="1.98043">
        <ele>153.95</ele>
        <time>2016-02-15T14:14:32Z</time>
      </trkpt>
      <trkpt lat="48.59563" lon="1.98037">
        <ele>154.43</ele>
        <time>2016-02-15T14:14:45Z</time>
      </trkpt>
      <trkpt lat="48.59542" lon="1.98024">
        <ele>155.87</ele>
        <time>2016-02-15T14:15:00Z</time>
      </trkpt>
      <trkpt lat="48.59532" lon="1.98017">
        <ele>155.87</ele>
        <time>2016-02-15T14:15:09Z</time>
      </trkpt>
      <trkpt lat="48.59526" lon="1.98008">
        <ele>156.35</ele>
        <time>2016-02-15T14:15:14Z</time>
      </trkpt>
      <trkpt lat="48.59512" lon="1.97992">
        <ele>156.83</ele>
        <time>2016-02-15T14:15:30Z</time>
      </trkpt>
      <trkpt lat="48.59513" lon="1.97983">
        <ele>156.83</ele>
        <time>2016-02-15T14:15:44Z</time>
      </trkpt>
      <trkpt lat="48.59515" lon="1.97981">
        <ele>156.35</ele>
        <time>2016-02-15T14:16:05Z</time>
      </trkpt>
      <trkpt lat="48.59515" lon="1.97985">
        <ele>156.35</ele>
        <time>2016-02-15T14:16:17Z</time>
      </trkpt>
      <trkpt lat="48.59517" lon="1.97984">
        <ele>155.87</ele>
        <time>2016-02-15T14:16:38Z</time>
      </trkpt>
      <trkpt lat="48.59515" lon="1.97986">
        <ele>155.87</ele>
        <time>2016-02-15T14:16:50Z</time>
      </trkpt>
      <trkpt lat="48.59514" lon="1.97989">
        <ele>155.39</ele>
        <time>2016-02-15T14:17:07Z</time>
      </trkpt>
      <trkpt lat="48.59515" lon="1.97989">
        <ele>155.87</ele>
        <time>2016-02-15T14:17:23Z</time>
      </trkpt>
      <trkpt lat="48.59516" lon="1.97988">
        <ele>154.91</ele>
        <time>2016-02-15T14:17:49Z</time>
      </trkpt>
      <trkpt lat="48.59515" lon="1.97984">
        <ele>155.39</ele>
        <time>2016-02-15T14:18:08Z</time>
      </trkpt>
      <trkpt lat="48.59515" lon="1.97984">
        <ele>155.39</ele>
        <time>2016-02-15T14:18:30Z</time>
      </trkpt>
      <trkpt lat="48.59516" lon="1.97984">
        <ele>155.39</ele>
        <time>2016-02-15T14:19:00Z</time>
      </trkpt>
      <trkpt lat="48.59516" lon="1.97987">
        <ele>154.43</ele>
        <time>2016-02-15T14:19:16Z</time>
      </trkpt>
      <trkpt lat="48.59516" lon="1.97986">
        <ele>154.43</ele>
        <time>2016-02-15T14:19:30Z</time>
      </trkpt>
      <trkpt lat="48.59513" lon="1.97972">
        <ele>154.91</ele>
        <time>2016-02-15T14:19:41Z</time>
      </trkpt>
      <trkpt lat="48.59511" lon="1.97961">
        <ele>154.91</ele>
        <time>2016-02-15T14:19:47Z</time>
      </trkpt>
      <trkpt lat="48.5951" lon="1.97948">
        <ele>155.39</ele>
        <time>2016-02-15T14:19:53Z</time>
      </trkpt>
      <trkpt lat="48.59498" lon="1.9791">
        <ele>155.39</ele>
        <time>2016-02-15T14:20:10Z</time>
      </trkpt>
      <trkpt lat="48.59483" lon="1.97868">
        <ele>154.91</ele>
        <time>2016-02-15T14:20:32Z</time>
      </trkpt>
      <trkpt lat="48.59469" lon="1.97829">
        <ele>155.87</ele>
        <time>2016-02-15T14:20:52Z</time>
      </trkpt>
      <trkpt lat="48.59455" lon="1.97793">
        <ele>154.43</ele>
        <time>2016-02-15T14:21:10Z</time>
      </trkpt>
      <trkpt lat="48.59448" lon="1.97762">
        <ele>153.47</ele>
        <time>2016-02-15T14:21:26Z</time>
      </trkpt>
      <trkpt lat="48.59439" lon="1.9773">
        <ele>151.54</ele>
        <time>2016-02-15T14:21:41Z</time>
      </trkpt>
      <trkpt lat="48.59431" lon="1.97702">
        <ele>149.62</ele>
        <time>2016-02-15T14:21:56Z</time>
      </trkpt>
      <trkpt lat="48.59429" lon="1.9767">
        <ele>147.22</ele>
        <time>2016-02-15T14:22:14Z</time>
      </trkpt>
      <trkpt lat="48.59429" lon="1.97664">
        <ele>146.26</ele>
        <time>2016-02-15T14:22:17Z</time>
      </trkpt>
      <trkpt lat="48.59431" lon="1.97641">
        <ele>144.34</ele>
        <time>2016-02-15T14:22:28Z</time>
      </trkpt>
      <trkpt lat="48.59444" lon="1.97639">
        <ele>143.37</ele>
        <time>2016-02-15T14:22:44Z</time>
      </trkpt>
      <trkpt lat="48.59455" lon="1.9765">
        <ele>142.89</ele>
        <time>2016-02-15T14:22:58Z</time>
      </trkpt>
      <trkpt lat="48.59483" lon="1.97669">
        <ele>142.41</ele>
        <time>2016-02-15T14:23:17Z</time>
      </trkpt>
      <trkpt lat="48.59511" lon="1.97688">
        <ele>142.41</ele>
        <time>2016-02-15T14:23:38Z</time>
      </trkpt>
      <trkpt lat="48.59522" lon="1.97696">
        <ele>140.97</ele>
        <time>2016-02-15T14:23:46Z</time>
      </trkpt>
      <trkpt lat="48.59554" lon="1.97717">
        <ele>139.05</ele>
        <time>2016-02-15T14:24:07Z</time>
      </trkpt>
      <trkpt lat="48.59586" lon="1.97732">
        <ele>135.68</ele>
        <time>2016-02-15T14:24:28Z</time>
      </trkpt>
      <trkpt lat="48.59615" lon="1.97745">
        <ele>133.76</ele>
        <time>2016-02-15T14:24:47Z</time>
      </trkpt>
      <trkpt lat="48.59618" lon="1.97747">
        <ele>132.8</ele>
        <time>2016-02-15T14:24:49Z</time>
      </trkpt>
      <trkpt lat="48.59645" lon="1.97763">
        <ele>129.43</ele>
        <time>2016-02-15T14:25:09Z</time>
      </trkpt>
      <trkpt lat="48.59659" lon="1.97773">
        <ele>127.51</ele>
        <time>2016-02-15T14:25:18Z</time>
      </trkpt>
      <trkpt lat="48.59667" lon="1.97786">
        <ele>124.15</ele>
        <time>2016-02-15T14:25:29Z</time>
      </trkpt>
      <trkpt lat="48.59672" lon="1.97792">
        <ele>122.71</ele>
        <time>2016-02-15T14:25:34Z</time>
      </trkpt>
      <trkpt lat="48.59684" lon="1.97817">
        <ele>124.63</ele>
        <time>2016-02-15T14:25:47Z</time>
      </trkpt>
      <trkpt lat="48.59705" lon="1.97845">
        <ele>122.71</ele>
        <time>2016-02-15T14:26:02Z</time>
      </trkpt>
      <trkpt lat="48.59732" lon="1.97864">
        <ele>122.71</ele>
        <time>2016-02-15T14:26:21Z</time>
      </trkpt>
      <trkpt lat="48.59751" lon="1.97878">
        <ele>124.15</ele>
        <time>2016-02-15T14:26:38Z</time>
      </trkpt>
      <trkpt lat="48.5977" lon="1.97897">
        <ele>122.22</ele>
        <time>2016-02-15T14:26:55Z</time>
      </trkpt>
      <trkpt lat="48.59783" lon="1.97907">
        <ele>122.71</ele>
        <time>2016-02-15T14:27:05Z</time>
      </trkpt>
      <trkpt lat="48.59796" lon="1.97918">
        <ele>123.67</ele>
        <time>2016-02-15T14:27:13Z</time>
      </trkpt>
      <trkpt lat="48.59815" lon="1.97935">
        <ele>128.47</ele>
        <time>2016-02-15T14:27:29Z</time>
      </trkpt>
      <trkpt lat="48.5982" lon="1.9794">
        <ele>129.43</ele>
        <time>2016-02-15T14:27:34Z</time>
      </trkpt>
      <trkpt lat="48.59827" lon="1.9795">
        <ele>131.36</ele>
        <time>2016-02-15T14:27:44Z</time>
      </trkpt>
      <trkpt lat="48.59843" lon="1.97969">
        <ele>134.72</ele>
        <time>2016-02-15T14:27:59Z</time>
      </trkpt>
      <trkpt lat="48.59854" lon="1.97982">
        <ele>138.09</ele>
        <time>2016-02-15T14:28:12Z</time>
      </trkpt>
      <trkpt lat="48.59866" lon="1.97983">
        <ele>137.61</ele>
        <time>2016-02-15T14:28:23Z</time>
      </trkpt>
      <trkpt lat="48.5987" lon="1.97973">
        <ele>136.64</ele>
        <time>2016-02-15T14:28:37Z</time>
      </trkpt>
      <trkpt lat="48.59872" lon="1.97963">
        <ele>135.2</ele>
        <time>2016-02-15T14:28:54Z</time>
      </trkpt>
      <trkpt lat="48.59878" lon="1.97951">
        <ele>132.8</ele>
        <time>2016-02-15T14:29:02Z</time>
      </trkpt>
      <trkpt lat="48.59884" lon="1.97927">
        <ele>129.92</ele>
        <time>2016-02-15T14:29:15Z</time>
      </trkpt>
      <trkpt lat="48.59891" lon="1.97912">
        <ele>127.99</ele>
        <time>2016-02-15T14:29:23Z</time>
      </trkpt>
      <trkpt lat="48.59899" lon="1.97891">
        <ele>124.15</ele>
        <time>2016-02-15T14:29:35Z</time>
      </trkpt>
      <trkpt lat="48.599" lon="1.97887">
        <ele>123.19</ele>
        <time>2016-02-15T14:29:37Z</time>
      </trkpt>
      <trkpt lat="48.59908" lon="1.97866">
        <ele>119.82</ele>
        <time>2016-02-15T14:29:49Z</time>
      </trkpt>
      <trkpt lat="48.59926" lon="1.97828">
        <ele>116.46</ele>
        <time>2016-02-15T14:30:08Z</time>
      </trkpt>
      <trkpt lat="48.59938" lon="1.97796">
        <ele>115.01</ele>
        <time>2016-02-15T14:30:27Z</time>
      </trkpt>
      <trkpt lat="48.5995" lon="1.97766">
        <ele>113.09</ele>
        <time>2016-02-15T14:30:44Z</time>
      </trkpt>
      <trkpt lat="48.59966" lon="1.97736">
        <ele>111.17</ele>
        <time>2016-02-15T14:31:02Z</time>
      </trkpt>
      <trkpt lat="48.59972" lon="1.97723">
        <ele>108.29</ele>
        <time>2016-02-15T14:31:12Z</time>
      </trkpt>
      <trkpt lat="48.59974" lon="1.97707">
        <ele>107.81</ele>
        <time>2016-02-15T14:31:21Z</time>
      </trkpt>
      <trkpt lat="48.59973" lon="1.97704">
        <ele>107.32</ele>
        <time>2016-02-15T14:31:32Z</time>
      </trkpt>
      <trkpt lat="48.59971" lon="1.97695">
        <ele>107.32</ele>
        <time>2016-02-15T14:31:45Z</time>
      </trkpt>
      <trkpt lat="48.59967" lon="1.9769">
        <ele>107.81</ele>
        <time>2016-02-15T14:31:52Z</time>
      </trkpt>
      <trkpt lat="48.59963" lon="1.97689">
        <ele>105.4</ele>
        <time>2016-02-15T14:31:55Z</time>
      </trkpt>
      <trkpt lat="48.59956" lon="1.97685">
        <ele>107.81</ele>
        <time>2016-02-15T14:32:01Z</time>
      </trkpt>
      <trkpt lat="48.59953" lon="1.97681">
        <ele>108.29</ele>
        <time>2016-02-15T14:32:04Z</time>
      </trkpt>
      <trkpt lat="48.5994" lon="1.97656">
        <ele>109.73</ele>
        <time>2016-02-15T14:32:21Z</time>
      </trkpt>
      <trkpt lat="48.59934" lon="1.97641">
        <ele>109.73</ele>
        <time>2016-02-15T14:32:31Z</time>
      </trkpt>
      <trkpt lat="48.59919" lon="1.97614">
        <ele>111.65</ele>
        <time>2016-02-15T14:32:46Z</time>
      </trkpt>
      <trkpt lat="48.5991" lon="1.97588">
        <ele>112.13</ele>
        <time>2016-02-15T14:33:01Z</time>
      </trkpt>
      <trkpt lat="48.59907" lon="1.97584">
        <ele>112.13</ele>
        <time>2016-02-15T14:33:04Z</time>
      </trkpt>
      <trkpt lat="48.59891" lon="1.97559">
        <ele>113.09</ele>
        <time>2016-02-15T14:33:20Z</time>
      </trkpt>
      <trkpt lat="48.59885" lon="1.97544">
        <ele>113.57</ele>
        <time>2016-02-15T14:33:29Z</time>
      </trkpt>
      <trkpt lat="48.59881" lon="1.97528">
        <ele>113.57</ele>
        <time>2016-02-15T14:33:39Z</time>
      </trkpt>
      <trkpt lat="48.59879" lon="1.97525">
        <ele>113.57</ele>
        <time>2016-02-15T14:33:41Z</time>
      </trkpt>
      <trkpt lat="48.59864" lon="1.97492">
        <ele>115.01</ele>
        <time>2016-02-15T14:33:58Z</time>
      </trkpt>
      <trkpt lat="48.59858" lon="1.97477">
        <ele>115.01</ele>
        <time>2016-02-15T14:34:06Z</time>
      </trkpt>
      <trkpt lat="48.59847" lon="1.97453">
        <ele>115.98</ele>
        <time>2016-02-15T14:34:19Z</time>
      </trkpt>
      <trkpt lat="48.59836" lon="1.97431">
        <ele>116.94</ele>
        <time>2016-02-15T14:34:33Z</time>
      </trkpt>
      <trkpt lat="48.5982" lon="1.97403">
        <ele>117.42</ele>
        <time>2016-02-15T14:34:48Z</time>
      </trkpt>
      <trkpt lat="48.59811" lon="1.97379">
        <ele>118.86</ele>
        <time>2016-02-15T14:35:00Z</time>
      </trkpt>
      <trkpt lat="48.598" lon="1.97356">
        <ele>119.34</ele>
        <time>2016-02-15T14:35:14Z</time>
      </trkpt>
      <trkpt lat="48.59793" lon="1.97344">
        <ele>120.3</ele>
        <time>2016-02-15T14:35:21Z</time>
      </trkpt>
      <trkpt lat="48.59781" lon="1.97316">
        <ele>120.78</ele>
        <time>2016-02-15T14:35:36Z</time>
      </trkpt>
      <trkpt lat="48.59769" lon="1.97291">
        <ele>120.78</ele>
        <time>2016-02-15T14:35:50Z</time>
      </trkpt>
      <trkpt lat="48.59765" lon="1.97282">
        <ele>122.22</ele>
        <time>2016-02-15T14:35:55Z</time>
      </trkpt>
      <trkpt lat="48.59763" lon="1.97278">
        <ele>122.22</ele>
        <time>2016-02-15T14:35:57Z</time>
      </trkpt>
      <trkpt lat="48.5976" lon="1.97275">
        <ele>122.22</ele>
        <time>2016-02-15T14:35:59Z</time>
      </trkpt>
      <trkpt lat="48.59751" lon="1.97256">
        <ele>123.19</ele>
        <time>2016-02-15T14:36:10Z</time>
      </trkpt>
      <trkpt lat="48.59746" lon="1.97246">
        <ele>122.71</ele>
        <time>2016-02-15T14:36:19Z</time>
      </trkpt>
      <trkpt lat="48.59748" lon="1.97242">
        <ele>124.15</ele>
        <time>2016-02-15T14:36:33Z</time>
      </trkpt>
      <trkpt lat="48.5975" lon="1.97237">
        <ele>125.11</ele>
        <time>2016-02-15T14:36:49Z</time>
      </trkpt>
      <trkpt lat="48.59751" lon="1.97235">
        <ele>123.67</ele>
        <time>2016-02-15T14:36:51Z</time>
      </trkpt>
      <trkpt lat="48.59772" lon="1.97223">
        <ele>124.63</ele>
        <time>2016-02-15T14:37:07Z</time>
      </trkpt>
      <trkpt lat="48.59803" lon="1.97211">
        <ele>124.63</ele>
        <time>2016-02-15T14:37:30Z</time>
      </trkpt>
      <trkpt lat="48.59834" lon="1.972">
        <ele>123.67</ele>
        <time>2016-02-15T14:37:52Z</time>
      </trkpt>
      <trkpt lat="48.59864" lon="1.97186">
        <ele>125.11</ele>
        <time>2016-02-15T14:38:10Z</time>
      </trkpt>
      <trkpt lat="48.59885" lon="1.97175">
        <ele>125.59</ele>
        <time>2016-02-15T14:38:28Z</time>
      </trkpt>
      <trkpt lat="48.59908" lon="1.97165">
        <ele>127.03</ele>
        <time>2016-02-15T14:38:48Z</time>
      </trkpt>
      <trkpt lat="48.59942" lon="1.97153">
        <ele>128.47</ele>
        <time>2016-02-15T14:39:07Z</time>
      </trkpt>
      <trkpt lat="48.59966" lon="1.97141">
        <ele>130.88</ele>
        <time>2016-02-15T14:39:26Z</time>
      </trkpt>
      <trkpt lat="48.59971" lon="1.9714">
        <ele>131.36</ele>
        <time>2016-02-15T14:39:37Z</time>
      </trkpt>
      <trkpt lat="48.59977" lon="1.97141">
        <ele>130.4</ele>
        <time>2016-02-15T14:39:43Z</time>
      </trkpt>
      <trkpt lat="48.59989" lon="1.97139">
        <ele>130.88</ele>
        <time>2016-02-15T14:39:59Z</time>
      </trkpt>
      <trkpt lat="48.59992" lon="1.9714">
        <ele>130.4</ele>
        <time>2016-02-15T14:40:06Z</time>
      </trkpt>
      <trkpt lat="48.60023" lon="1.97129">
        <ele>129.92</ele>
        <time>2016-02-15T14:40:24Z</time>
      </trkpt>
      <trkpt lat="48.60028" lon="1.97123">
        <ele>129.43</ele>
        <time>2016-02-15T14:40:26Z</time>
      </trkpt>
      <trkpt lat="48.60062" lon="1.97094">
        <ele>129.92</ele>
        <time>2016-02-15T14:40:44Z</time>
      </trkpt>
      <trkpt lat="48.60088" lon="1.97075">
        <ele>128.95</ele>
        <time>2016-02-15T14:41:02Z</time>
      </trkpt>
      <trkpt lat="48.60113" lon="1.97071">
        <ele>126.55</ele>
        <time>2016-02-15T14:41:18Z</time>
      </trkpt>
      <trkpt lat="48.60139" lon="1.97078">
        <ele>123.19</ele>
        <time>2016-02-15T14:41:35Z</time>
      </trkpt>
      <trkpt lat="48.60163" lon="1.97079">
        <ele>120.78</ele>
        <time>2016-02-15T14:41:52Z</time>
      </trkpt>
      <trkpt lat="48.60191" lon="1.97083">
        <ele>118.38</ele>
        <time>2016-02-15T14:42:12Z</time>
      </trkpt>
      <trkpt lat="48.60216" lon="1.9709">
        <ele>116.46</ele>
        <time>2016-02-15T14:42:31Z</time>
      </trkpt>
      <trkpt lat="48.60238" lon="1.97102">
        <ele>115.5</ele>
        <time>2016-02-15T14:42:51Z</time>
      </trkpt>
      <trkpt lat="48.60244" lon="1.97103">
        <ele>115.01</ele>
        <time>2016-02-15T14:42:55Z</time>
      </trkpt>
      <trkpt lat="48.60271" lon="1.9707">
        <ele>112.13</ele>
        <time>2016-02-15T14:43:15Z</time>
      </trkpt>
      <trkpt lat="48.60273" lon="1.97067">
        <ele>112.13</ele>
        <time>2016-02-15T14:43:17Z</time>
      </trkpt>
      <trkpt lat="48.60275" lon="1.97063">
        <ele>112.13</ele>
        <time>2016-02-15T14:43:19Z</time>
      </trkpt>
      <trkpt lat="48.6029" lon="1.97029">
        <ele>110.21</ele>
        <time>2016-02-15T14:43:37Z</time>
      </trkpt>
      <trkpt lat="48.6029" lon="1.97025">
        <ele>110.21</ele>
        <time>2016-02-15T14:43:39Z</time>
      </trkpt>
      <trkpt lat="48.60291" lon="1.97016">
        <ele>110.21</ele>
        <time>2016-02-15T14:43:43Z</time>
      </trkpt>
      <trkpt lat="48.60286" lon="1.96976">
        <ele>110.69</ele>
        <time>2016-02-15T14:43:59Z</time>
      </trkpt>
      <trkpt lat="48.6027" lon="1.96936">
        <ele>112.61</ele>
        <time>2016-02-15T14:44:19Z</time>
      </trkpt>
      <trkpt lat="48.60257" lon="1.969">
        <ele>113.09</ele>
        <time>2016-02-15T14:44:39Z</time>
      </trkpt>
      <trkpt lat="48.60246" lon="1.96874">
        <ele>114.53</ele>
        <time>2016-02-15T14:44:53Z</time>
      </trkpt>
      <trkpt lat="48.60242" lon="1.96865">
        <ele>114.53</ele>
        <time>2016-02-15T14:44:58Z</time>
      </trkpt>
      <trkpt lat="48.6023" lon="1.96831">
        <ele>115.98</ele>
        <time>2016-02-15T14:45:17Z</time>
      </trkpt>
      <trkpt lat="48.60222" lon="1.96792">
        <ele>116.46</ele>
        <time>2016-02-15T14:45:35Z</time>
      </trkpt>
      <trkpt lat="48.60214" lon="1.96751">
        <ele>117.9</ele>
        <time>2016-02-15T14:45:54Z</time>
      </trkpt>
      <trkpt lat="48.60203" lon="1.96708">
        <ele>117.9</ele>
        <time>2016-02-15T14:46:13Z</time>
      </trkpt>
      <trkpt lat="48.602" lon="1.96678">
        <ele>118.86</ele>
        <time>2016-02-15T14:46:28Z</time>
      </trkpt>
      <trkpt lat="48.60204" lon="1.96631">
        <ele>119.82</ele>
        <time>2016-02-15T14:46:47Z</time>
      </trkpt>
      <trkpt lat="48.60205" lon="1.96603">
        <ele>120.78</ele>
        <time>2016-02-15T14:47:00Z</time>
      </trkpt>
      <trkpt lat="48.60207" lon="1.96591">
        <ele>121.26</ele>
        <time>2016-02-15T14:47:06Z</time>
      </trkpt>
      <trkpt lat="48.60205" lon="1.96538">
        <ele>123.19</ele>
        <time>2016-02-15T14:47:27Z</time>
      </trkpt>
      <trkpt lat="48.60207" lon="1.96505">
        <ele>124.63</ele>
        <time>2016-02-15T14:47:44Z</time>
      </trkpt>
      <trkpt lat="48.60205" lon="1.96466">
        <ele>124.63</ele>
        <time>2016-02-15T14:48:00Z</time>
      </trkpt>
      <trkpt lat="48.60198" lon="1.96432">
        <ele>126.55</ele>
        <time>2016-02-15T14:48:17Z</time>
      </trkpt>
      <trkpt lat="48.60194" lon="1.96398">
        <ele>127.99</ele>
        <time>2016-02-15T14:48:32Z</time>
      </trkpt>
      <trkpt lat="48.60186" lon="1.96365">
        <ele>128.47</ele>
        <time>2016-02-15T14:48:48Z</time>
      </trkpt>
      <trkpt lat="48.60179" lon="1.96336">
        <ele>127.51</ele>
        <time>2016-02-15T14:49:04Z</time>
      </trkpt>
      <trkpt lat="48.60177" lon="1.96311">
        <ele>125.59</ele>
        <time>2016-02-15T14:49:17Z</time>
      </trkpt>
      <trkpt lat="48.60165" lon="1.96281">
        <ele>124.63</ele>
        <time>2016-02-15T14:49:35Z</time>
      </trkpt>
      <trkpt lat="48.60157" lon="1.96269">
        <ele>122.71</ele>
        <time>2016-02-15T14:49:44Z</time>
      </trkpt>
      <trkpt lat="48.60152" lon="1.96262">
        <ele>122.22</ele>
        <time>2016-02-15T14:49:48Z</time>
      </trkpt>
      <trkpt lat="48.60142" lon="1.96231">
        <ele>120.3</ele>
        <time>2016-02-15T14:50:05Z</time>
      </trkpt>
      <trkpt lat="48.6015" lon="1.96196">
        <ele>117.42</ele>
        <time>2016-02-15T14:50:22Z</time>
      </trkpt>
      <trkpt lat="48.6015" lon="1.96146">
        <ele>116.94</ele>
        <time>2016-02-15T14:50:42Z</time>
      </trkpt>
      <trkpt lat="48.60151" lon="1.96117">
        <ele>115.01</ele>
        <time>2016-02-15T14:50:57Z</time>
      </trkpt>
      <trkpt lat="48.60141" lon="1.96078">
        <ele>115.01</ele>
        <time>2016-02-15T14:51:17Z</time>
      </trkpt>
      <trkpt lat="48.60136" lon="1.96037">
        <ele>112.61</ele>
        <time>2016-02-15T14:51:36Z</time>
      </trkpt>
      <trkpt lat="48.60128" lon="1.95998">
        <ele>111.65</ele>
        <time>2016-02-15T14:51:55Z</time>
      </trkpt>
      <trkpt lat="48.60125" lon="1.95965">
        <ele>110.21</ele>
        <time>2016-02-15T14:52:11Z</time>
      </trkpt>
      <trkpt lat="48.60119" lon="1.95929">
        <ele>109.73</ele>
        <time>2016-02-15T14:52:29Z</time>
      </trkpt>
      <trkpt lat="48.60115" lon="1.95914">
        <ele>109.25</ele>
        <time>2016-02-15T14:52:37Z</time>
      </trkpt>
      <trkpt lat="48.60094" lon="1.95875">
        <ele>107.81</ele>
        <time>2016-02-15T14:53:00Z</time>
      </trkpt>
      <trkpt lat="48.60072" lon="1.95855">
        <ele>108.77</ele>
        <time>2016-02-15T14:53:18Z</time>
      </trkpt>
      <trkpt lat="48.60069" lon="1.95854">
        <ele>109.25</ele>
        <time>2016-02-15T14:53:20Z</time>
      </trkpt>
      <trkpt lat="48.60048" lon="1.95825">
        <ele>109.25</ele>
        <time>2016-02-15T14:53:39Z</time>
      </trkpt>
      <trkpt lat="48.60038" lon="1.95795">
        <ele>109.73</ele>
        <time>2016-02-15T14:53:54Z</time>
      </trkpt>
      <trkpt lat="48.60023" lon="1.9576">
        <ele>110.69</ele>
        <time>2016-02-15T14:54:14Z</time>
      </trkpt>
      <trkpt lat="48.60022" lon="1.95758">
        <ele>111.17</ele>
        <time>2016-02-15T14:54:15Z</time>
      </trkpt>
      <trkpt lat="48.60019" lon="1.95748">
        <ele>111.17</ele>
        <time>2016-02-15T14:54:19Z</time>
      </trkpt>
      <trkpt lat="48.60013" lon="1.9573">
        <ele>111.17</ele>
        <time>2016-02-15T14:54:28Z</time>
      </trkpt>
      <trkpt lat="48.60009" lon="1.95721">
        <ele>113.09</ele>
        <time>2016-02-15T14:54:35Z</time>
      </trkpt>
      <trkpt lat="48.60002" lon="1.95708">
        <ele>113.09</ele>
        <time>2016-02-15T14:54:45Z</time>
      </trkpt>
      <trkpt lat="48.59985" lon="1.95689">
        <ele>115.01</ele>
        <time>2016-02-15T14:55:00Z</time>
      </trkpt>
      <trkpt lat="48.59975" lon="1.95687">
        <ele>115.98</ele>
        <time>2016-02-15T14:55:08Z</time>
      </trkpt>
      <trkpt lat="48.5995" lon="1.95685">
        <ele>117.42</ele>
        <time>2016-02-15T14:55:27Z</time>
      </trkpt>
      <trkpt lat="48.59947" lon="1.95685">
        <ele>117.42</ele>
        <time>2016-02-15T14:55:30Z</time>
      </trkpt>
      <trkpt lat="48.59927" lon="1.95683">
        <ele>115.98</ele>
        <time>2016-02-15T14:55:47Z</time>
      </trkpt>
      <trkpt lat="48.59893" lon="1.95685">
        <ele>114.05</ele>
        <time>2016-02-15T14:56:10Z</time>
      </trkpt>
      <trkpt lat="48.59879" lon="1.95682">
        <ele>113.57</ele>
        <time>2016-02-15T14:56:20Z</time>
      </trkpt>
      <trkpt lat="48.59851" lon="1.95681">
        <ele>112.61</ele>
        <time>2016-02-15T14:56:41Z</time>
      </trkpt>
      <trkpt lat="48.59826" lon="1.95693">
        <ele>111.65</ele>
        <time>2016-02-15T14:56:57Z</time>
      </trkpt>
      <trkpt lat="48.59802" lon="1.9569">
        <ele>111.17</ele>
        <time>2016-02-15T14:57:17Z</time>
      </trkpt>
      <trkpt lat="48.59775" lon="1.95681">
        <ele>109.25</ele>
        <time>2016-02-15T14:57:35Z</time>
      </trkpt>
      <trkpt lat="48.59772" lon="1.9568">
        <ele>108.77</ele>
        <time>2016-02-15T14:57:37Z</time>
      </trkpt>
      <trkpt lat="48.59748" lon="1.95667">
        <ele>108.77</ele>
        <time>2016-02-15T14:57:56Z</time>
      </trkpt>
      <trkpt lat="48.59743" lon="1.95664">
        <ele>108.29</ele>
        <time>2016-02-15T14:58:00Z</time>
      </trkpt>
      <trkpt lat="48.59706" lon="1.95657">
        <ele>107.81</ele>
        <time>2016-02-15T14:58:21Z</time>
      </trkpt>
      <trkpt lat="48.5968" lon="1.95648">
        <ele>107.32</ele>
        <time>2016-02-15T14:58:39Z</time>
      </trkpt>
      <trkpt lat="48.59671" lon="1.95646">
        <ele>107.81</ele>
        <time>2016-02-15T14:58:44Z</time>
      </trkpt>
      <trkpt lat="48.59665" lon="1.95645">
        <ele>107.32</ele>
        <time>2016-02-15T14:58:48Z</time>
      </trkpt>
      <trkpt lat="48.59634" lon="1.95645">
        <ele>106.84</ele>
        <time>2016-02-15T14:59:07Z</time>
      </trkpt>
      <trkpt lat="48.5961" lon="1.95651">
        <ele>106.36</ele>
        <time>2016-02-15T14:59:25Z</time>
      </trkpt>
      <trkpt lat="48.5959" lon="1.95652">
        <ele>106.36</ele>
        <time>2016-02-15T14:59:36Z</time>
      </trkpt>
      <trkpt lat="48.5957" lon="1.95636">
        <ele>105.4</ele>
        <time>2016-02-15T14:59:51Z</time>
      </trkpt>
      <trkpt lat="48.59548" lon="1.95615">
        <ele>105.88</ele>
        <time>2016-02-15T15:00:09Z</time>
      </trkpt>
      <trkpt lat="48.59527" lon="1.95612">
        <ele>105.88</ele>
        <time>2016-02-15T15:00:29Z</time>
      </trkpt>
      <trkpt lat="48.5953" lon="1.95616">
        <ele>105.4</ele>
        <time>2016-02-15T15:00:36Z</time>
      </trkpt>
      <trkpt lat="48.59538" lon="1.95624">
        <ele>105.88</ele>
        <time>2016-02-15T15:00:49Z</time>
      </trkpt>
      <trkpt lat="48.59539" lon="1.95624">
        <ele>105.88</ele>
        <time>2016-02-15T15:00:50Z</time>
      </trkpt>
      <trkpt lat="48.59537" lon="1.95619">
        <ele>106.36</ele>
        <time>2016-02-15T15:00:59Z</time>
      </trkpt>
      <trkpt lat="48.59532" lon="1.95616">
        <ele>105.4</ele>
        <time>2016-02-15T15:01:04Z</time>
      </trkpt>
      <trkpt lat="48.59524" lon="1.95608">
        <ele>105.4</ele>
        <time>2016-02-15T15:01:14Z</time>
      </trkpt>
      <trkpt lat="48.59527" lon="1.95608">
        <ele>105.88</ele>
        <time>2016-02-15T15:01:17Z</time>
      </trkpt>
      <trkpt lat="48.59537" lon="1.95613">
        <ele>105.4</ele>
        <time>2016-02-15T15:01:26Z</time>
      </trkpt>
      <trkpt lat="48.5954" lon="1.95615">
        <ele>104.92</ele>
        <time>2016-02-15T15:01:28Z</time>
      </trkpt>
      <trkpt lat="48.59545" lon="1.95621">
        <ele>104.92</ele>
        <time>2016-02-15T15:01:38Z</time>
      </trkpt>
      <trkpt lat="48.59559" lon="1.95632">
        <ele>104.92</ele>
        <time>2016-02-15T15:01:52Z</time>
      </trkpt>
      <trkpt lat="48.59556" lon="1.95629">
        <ele>104.92</ele>
        <time>2016-02-15T15:02:00Z</time>
      </trkpt>
      <trkpt lat="48.59561" lon="1.95637">
        <ele>105.88</ele>
        <time>2016-02-15T15:02:08Z</time>
      </trkpt>
      <trkpt lat="48.59566" lon="1.9564">
        <ele>105.88</ele>
        <time>2016-02-15T15:02:22Z</time>
      </trkpt>
      <trkpt lat="48.59568" lon="1.95641">
        <ele>105.88</ele>
        <time>2016-02-15T15:02:24Z</time>
      </trkpt>
      <trkpt lat="48.59574" lon="1.9565">
        <ele>106.36</ele>
        <time>2016-02-15T15:02:37Z</time>
      </trkpt>
      <trkpt lat="48.59577" lon="1.95654">
        <ele>106.36</ele>
        <time>2016-02-15T15:02:57Z</time>
      </trkpt>
      <trkpt lat="48.59572" lon="1.95657">
        <ele>105.88</ele>
        <time>2016-02-15T15:03:04Z</time>
      </trkpt>
      <trkpt lat="48.59542" lon="1.95682">
        <ele>106.36</ele>
        <time>2016-02-15T15:03:24Z</time>
      </trkpt>
      <trkpt lat="48.59528" lon="1.95694">
        <ele>106.36</ele>
        <time>2016-02-15T15:03:37Z</time>
      </trkpt>
      <trkpt lat="48.59499" lon="1.95702">
        <ele>106.84</ele>
        <time>2016-02-15T15:03:55Z</time>
      </trkpt>
      <trkpt lat="48.59482" lon="1.95724">
        <ele>105.88</ele>
        <time>2016-02-15T15:04:13Z</time>
      </trkpt>
      <trkpt lat="48.59477" lon="1.95738">
        <ele>106.36</ele>
        <time>2016-02-15T15:04:37Z</time>
      </trkpt>
      <trkpt lat="48.59472" lon="1.95753">
        <ele>106.84</ele>
        <time>2016-02-15T15:04:55Z</time>
      </trkpt>
      <trkpt lat="48.59464" lon="1.95772">
        <ele>106.84</ele>
        <time>2016-02-15T15:05:11Z</time>
      </trkpt>
      <trkpt lat="48.59451" lon="1.95815">
        <ele>107.32</ele>
        <time>2016-02-15T15:05:28Z</time>
      </trkpt>
      <trkpt lat="48.59441" lon="1.95845">
        <ele>107.32</ele>
        <time>2016-02-15T15:05:46Z</time>
      </trkpt>
      <trkpt lat="48.59434" lon="1.95867">
        <ele>107.81</ele>
        <time>2016-02-15T15:06:04Z</time>
      </trkpt>
      <trkpt lat="48.59421" lon="1.95914">
        <ele>106.84</ele>
        <time>2016-02-15T15:06:26Z</time>
      </trkpt>
      <trkpt lat="48.59414" lon="1.9593">
        <ele>107.32</ele>
        <time>2016-02-15T15:06:29Z</time>
      </trkpt>
      <trkpt lat="48.59395" lon="1.95973">
        <ele>107.32</ele>
        <time>2016-02-15T15:06:48Z</time>
      </trkpt>
      <trkpt lat="48.59382" lon="1.96006">
        <ele>107.32</ele>
        <time>2016-02-15T15:07:09Z</time>
      </trkpt>
      <trkpt lat="48.59373" lon="1.96031">
        <ele>107.32</ele>
        <time>2016-02-15T15:07:30Z</time>
      </trkpt>
      <trkpt lat="48.59366" lon="1.96054">
        <ele>106.36</ele>
        <time>2016-02-15T15:07:47Z</time>
      </trkpt>
      <trkpt lat="48.59357" lon="1.96084">
        <ele>106.84</ele>
        <time>2016-02-15T15:08:04Z</time>
      </trkpt>
      <trkpt lat="48.59339" lon="1.96126">
        <ele>106.36</ele>
        <time>2016-02-15T15:08:21Z</time>
      </trkpt>
      <trkpt lat="48.59332" lon="1.96153">
        <ele>106.84</ele>
        <time>2016-02-15T15:08:38Z</time>
      </trkpt>
      <trkpt lat="48.59316" lon="1.96192">
        <ele>106.36</ele>
        <time>2016-02-15T15:08:59Z</time>
      </trkpt>
      <trkpt lat="48.59303" lon="1.96229">
        <ele>107.32</ele>
        <time>2016-02-15T15:09:19Z</time>
      </trkpt>
      <trkpt lat="48.59295" lon="1.96248">
        <ele>107.32</ele>
        <time>2016-02-15T15:09:32Z</time>
      </trkpt>
      <trkpt lat="48.59279" lon="1.96286">
        <ele>108.29</ele>
        <time>2016-02-15T15:09:49Z</time>
      </trkpt>
      <trkpt lat="48.59262" lon="1.96328">
        <ele>108.29</ele>
        <time>2016-02-15T15:10:09Z</time>
      </trkpt>
      <trkpt lat="48.59253" lon="1.96359">
        <ele>108.77</ele>
        <time>2016-02-15T15:10:25Z</time>
      </trkpt>
      <trkpt lat="48.59256" lon="1.96395">
        <ele>108.77</ele>
        <time>2016-02-15T15:10:40Z</time>
      </trkpt>
      <trkpt lat="48.5924" lon="1.96408">
        <ele>107.81</ele>
        <time>2016-02-15T15:10:58Z</time>
      </trkpt>
      <trkpt lat="48.59238" lon="1.96411">
        <ele>107.81</ele>
        <time>2016-02-15T15:11:00Z</time>
      </trkpt>
      <trkpt lat="48.59236" lon="1.96414">
        <ele>107.32</ele>
        <time>2016-02-15T15:11:02Z</time>
      </trkpt>
      <trkpt lat="48.59225" lon="1.96439">
        <ele>105.88</ele>
        <time>2016-02-15T15:11:17Z</time>
      </trkpt>
      <trkpt lat="48.59218" lon="1.96449">
        <ele>105.4</ele>
        <time>2016-02-15T15:11:36Z</time>
      </trkpt>
      <trkpt lat="48.59204" lon="1.96482">
        <ele>103.96</ele>
        <time>2016-02-15T15:11:55Z</time>
      </trkpt>
      <trkpt lat="48.59187" lon="1.96527">
        <ele>103</ele>
        <time>2016-02-15T15:12:15Z</time>
      </trkpt>
      <trkpt lat="48.59179" lon="1.96564">
        <ele>103.48</ele>
        <time>2016-02-15T15:12:33Z</time>
      </trkpt>
      <trkpt lat="48.5918" lon="1.9657">
        <ele>103.48</ele>
        <time>2016-02-15T15:12:35Z</time>
      </trkpt>
      <trkpt lat="48.59182" lon="1.96582">
        <ele>104.44</ele>
        <time>2016-02-15T15:12:41Z</time>
      </trkpt>
      <trkpt lat="48.59186" lon="1.96607">
        <ele>103</ele>
        <time>2016-02-15T15:12:57Z</time>
      </trkpt>
      <trkpt lat="48.59183" lon="1.96612">
        <ele>103</ele>
        <time>2016-02-15T15:13:10Z</time>
      </trkpt>
      <trkpt lat="48.59183" lon="1.96611">
        <ele>103.48</ele>
        <time>2016-02-15T15:13:24Z</time>
      </trkpt>
      <trkpt lat="48.59182" lon="1.96611">
        <ele>103.48</ele>
        <time>2016-02-15T15:13:39Z</time>
      </trkpt>
      <trkpt lat="48.59181" lon="1.96611">
        <ele>103</ele>
        <time>2016-02-15T15:13:54Z</time>
      </trkpt>
      <trkpt lat="48.59181" lon="1.96611">
        <ele>103</ele>
        <time>2016-02-15T15:14:00Z</time>
      </trkpt>
      <trkpt lat="48.59181" lon="1.9661">
        <ele>103.48</ele>
        <time>2016-02-15T15:14:11Z</time>
      </trkpt>
      <trkpt lat="48.59178" lon="1.96611">
        <ele>103</ele>
        <time>2016-02-15T15:14:27Z</time>
      </trkpt>
      <trkpt lat="48.59178" lon="1.96611">
        <ele>103</ele>
        <time>2016-02-15T15:14:38Z</time>
      </trkpt>
      <trkpt lat="48.59177" lon="1.96612">
        <ele>103</ele>
        <time>2016-02-15T15:14:51Z</time>
      </trkpt>
      <trkpt lat="48.59177" lon="1.96613">
        <ele>102.52</ele>
        <time>2016-02-15T15:15:05Z</time>
      </trkpt>
      <trkpt lat="48.59177" lon="1.96613">
        <ele>103.48</ele>
        <time>2016-02-15T15:15:27Z</time>
      </trkpt>
      <trkpt lat="48.59176" lon="1.96612">
        <ele>103</ele>
        <time>2016-02-15T15:15:56Z</time>
      </trkpt>
    </trkseg>
  </trk>
</gpx>